<?xml version="1.0" encoding="UTF-8" standalone="no" ?>
<gpx xmlns="http://www.topografix.com/GPX/1/1" xmlns:xsi="http://www.w3.org/2001/XMLSchema-instance" xsi:schemaLocation="http://www.topografix.com/GPX/1/1 http://www.topografix.com/GPX/1/1/gpx.xsd" version="1.1" creator="VisuGPX - https://www.visugpx.com">
  <metadata>
    <name>secteur Saverne - Dabo - Petite Pierre</name>
  </metadata>
  <trk>
    <name><![CDATA[secteur Saverne - Dabo - Petite Pierre_21]]></name>
    <trkseg>
      <trkpt lat="48.75609" lon="7.26522">
        <ele>306.1</ele>
        <time>2020-08-14T11:20:09Z</time>
      </trkpt>
      <trkpt lat="48.75609" lon="7.26522">
        <ele>306.1</ele>
        <time>2020-08-14T11:20:09Z</time>
      </trkpt>
      <trkpt lat="48.75609" lon="7.26522">
        <ele>306.1</ele>
        <time>2020-08-14T11:20:09Z</time>
      </trkpt>
      <trkpt lat="48.75609" lon="7.26522">
        <ele>306.1</ele>
        <time>2020-08-14T11:20:09Z</time>
      </trkpt>
      <trkpt lat="48.75609" lon="7.26522">
        <ele>306.1</ele>
        <time>2020-08-14T11:20:09Z</time>
      </trkpt>
      <trkpt lat="48.75609" lon="7.26522">
        <ele>306.1</ele>
        <time>2020-08-14T11:20:09Z</time>
      </trkpt>
      <trkpt lat="48.75609" lon="7.26522">
        <ele>306.1</ele>
        <time>2020-08-14T11:20:09Z</time>
      </trkpt>
      <trkpt lat="48.75605" lon="7.26524">
        <ele>303.1</ele>
        <time>2020-08-14T11:20:13Z</time>
      </trkpt>
      <trkpt lat="48.756" lon="7.26528">
        <ele>301.7</ele>
        <time>2020-08-14T11:20:15Z</time>
      </trkpt>
      <trkpt lat="48.75595" lon="7.26532">
        <ele>301.2</ele>
        <time>2020-08-14T11:20:17Z</time>
      </trkpt>
      <trkpt lat="48.7559" lon="7.26539">
        <ele>300.8</ele>
        <time>2020-08-14T11:20:19Z</time>
      </trkpt>
      <trkpt lat="48.75584" lon="7.26552">
        <ele>309.4</ele>
        <time>2020-08-14T11:20:21Z</time>
      </trkpt>
      <trkpt lat="48.7558" lon="7.26568">
        <ele>309.5</ele>
        <time>2020-08-14T11:20:23Z</time>
      </trkpt>
      <trkpt lat="48.75574" lon="7.26586">
        <ele>309.3</ele>
        <time>2020-08-14T11:20:25Z</time>
      </trkpt>
      <trkpt lat="48.75568" lon="7.26604">
        <ele>307.7</ele>
        <time>2020-08-14T11:20:27Z</time>
      </trkpt>
      <trkpt lat="48.75563" lon="7.26622">
        <ele>304.6</ele>
        <time>2020-08-14T11:20:29Z</time>
      </trkpt>
      <trkpt lat="48.75559" lon="7.2664">
        <ele>302</ele>
        <time>2020-08-14T11:20:31Z</time>
      </trkpt>
      <trkpt lat="48.75554" lon="7.26657">
        <ele>300.1</ele>
        <time>2020-08-14T11:20:33Z</time>
      </trkpt>
      <trkpt lat="48.75545" lon="7.26673">
        <ele>298.3</ele>
        <time>2020-08-14T11:20:35Z</time>
      </trkpt>
      <trkpt lat="48.75534" lon="7.26686">
        <ele>296.8</ele>
        <time>2020-08-14T11:20:37Z</time>
      </trkpt>
      <trkpt lat="48.75524" lon="7.26699">
        <ele>294.8</ele>
        <time>2020-08-14T11:20:39Z</time>
      </trkpt>
      <trkpt lat="48.75512" lon="7.26707">
        <ele>292.6</ele>
        <time>2020-08-14T11:20:41Z</time>
      </trkpt>
      <trkpt lat="48.75501" lon="7.26716">
        <ele>290.8</ele>
        <time>2020-08-14T11:20:43Z</time>
      </trkpt>
      <trkpt lat="48.75489" lon="7.26725">
        <ele>290.4</ele>
        <time>2020-08-14T11:20:45Z</time>
      </trkpt>
      <trkpt lat="48.75478" lon="7.26732">
        <ele>290.4</ele>
        <time>2020-08-14T11:20:47Z</time>
      </trkpt>
      <trkpt lat="48.75467" lon="7.26741">
        <ele>289.8</ele>
        <time>2020-08-14T11:20:49Z</time>
      </trkpt>
      <trkpt lat="48.75456" lon="7.2675">
        <ele>287.5</ele>
        <time>2020-08-14T11:20:51Z</time>
      </trkpt>
      <trkpt lat="48.75445" lon="7.26761">
        <ele>285.8</ele>
        <time>2020-08-14T11:20:53Z</time>
      </trkpt>
      <trkpt lat="48.75436" lon="7.26771">
        <ele>284.6</ele>
        <time>2020-08-14T11:20:55Z</time>
      </trkpt>
      <trkpt lat="48.75425" lon="7.2678">
        <ele>284.5</ele>
        <time>2020-08-14T11:20:57Z</time>
      </trkpt>
      <trkpt lat="48.75414" lon="7.26786">
        <ele>284.1</ele>
        <time>2020-08-14T11:20:59Z</time>
      </trkpt>
      <trkpt lat="48.75403" lon="7.2679">
        <ele>283.8</ele>
        <time>2020-08-14T11:21:01Z</time>
      </trkpt>
      <trkpt lat="48.75393" lon="7.26793">
        <ele>283.7</ele>
        <time>2020-08-14T11:21:03Z</time>
      </trkpt>
      <trkpt lat="48.75382" lon="7.268">
        <ele>281.4</ele>
        <time>2020-08-14T11:21:05Z</time>
      </trkpt>
      <trkpt lat="48.75372" lon="7.26807">
        <ele>280</ele>
        <time>2020-08-14T11:21:07Z</time>
      </trkpt>
      <trkpt lat="48.75363" lon="7.26813">
        <ele>278.8</ele>
        <time>2020-08-14T11:21:09Z</time>
      </trkpt>
      <trkpt lat="48.75353" lon="7.26821">
        <ele>277.6</ele>
        <time>2020-08-14T11:21:11Z</time>
      </trkpt>
      <trkpt lat="48.75343" lon="7.26828">
        <ele>275.6</ele>
        <time>2020-08-14T11:21:13Z</time>
      </trkpt>
      <trkpt lat="48.75332" lon="7.26835">
        <ele>274.1</ele>
        <time>2020-08-14T11:21:15Z</time>
      </trkpt>
      <trkpt lat="48.75323" lon="7.26842">
        <ele>273.5</ele>
        <time>2020-08-14T11:21:17Z</time>
      </trkpt>
      <trkpt lat="48.75312" lon="7.26846">
        <ele>271.4</ele>
        <time>2020-08-14T11:21:19Z</time>
      </trkpt>
      <trkpt lat="48.75303" lon="7.26852">
        <ele>270.4</ele>
        <time>2020-08-14T11:21:21Z</time>
      </trkpt>
      <trkpt lat="48.75296" lon="7.2686">
        <ele>270.1</ele>
        <time>2020-08-14T11:21:23Z</time>
      </trkpt>
      <trkpt lat="48.75292" lon="7.26865">
        <ele>269.6</ele>
        <time>2020-08-14T11:21:25Z</time>
      </trkpt>
      <trkpt lat="48.75285" lon="7.26869">
        <ele>268.5</ele>
        <time>2020-08-14T11:21:27Z</time>
      </trkpt>
      <trkpt lat="48.75276" lon="7.26876">
        <ele>268.9</ele>
        <time>2020-08-14T11:21:29Z</time>
      </trkpt>
      <trkpt lat="48.75268" lon="7.26881">
        <ele>268.8</ele>
        <time>2020-08-14T11:21:31Z</time>
      </trkpt>
      <trkpt lat="48.75259" lon="7.26885">
        <ele>282.7</ele>
        <time>2020-08-14T11:21:33Z</time>
      </trkpt>
      <trkpt lat="48.7525" lon="7.2689">
        <ele>284.8</ele>
        <time>2020-08-14T11:21:35Z</time>
      </trkpt>
      <trkpt lat="48.75241" lon="7.26898">
        <ele>292.7</ele>
        <time>2020-08-14T11:21:37Z</time>
      </trkpt>
      <trkpt lat="48.75233" lon="7.26905">
        <ele>292.9</ele>
        <time>2020-08-14T11:21:39Z</time>
      </trkpt>
      <trkpt lat="48.75226" lon="7.2691">
        <ele>293.7</ele>
        <time>2020-08-14T11:21:41Z</time>
      </trkpt>
      <trkpt lat="48.75219" lon="7.26913">
        <ele>293.2</ele>
        <time>2020-08-14T11:21:43Z</time>
      </trkpt>
      <trkpt lat="48.75213" lon="7.26916">
        <ele>290.7</ele>
        <time>2020-08-14T11:21:45Z</time>
      </trkpt>
      <trkpt lat="48.75205" lon="7.2692">
        <ele>288.8</ele>
        <time>2020-08-14T11:21:47Z</time>
      </trkpt>
      <trkpt lat="48.75197" lon="7.26925">
        <ele>287.9</ele>
        <time>2020-08-14T11:21:49Z</time>
      </trkpt>
      <trkpt lat="48.75189" lon="7.2693">
        <ele>287.7</ele>
        <time>2020-08-14T11:21:51Z</time>
      </trkpt>
      <trkpt lat="48.7518" lon="7.26937">
        <ele>287.8</ele>
        <time>2020-08-14T11:21:53Z</time>
      </trkpt>
      <trkpt lat="48.75173" lon="7.26944">
        <ele>288.2</ele>
        <time>2020-08-14T11:21:55Z</time>
      </trkpt>
      <trkpt lat="48.75158" lon="7.26952">
        <ele>288</ele>
        <time>2020-08-14T11:21:58Z</time>
      </trkpt>
      <trkpt lat="48.75148" lon="7.26956">
        <ele>286.8</ele>
        <time>2020-08-14T11:22:00Z</time>
      </trkpt>
      <trkpt lat="48.75138" lon="7.26958">
        <ele>286.4</ele>
        <time>2020-08-14T11:22:02Z</time>
      </trkpt>
      <trkpt lat="48.75126" lon="7.26964">
        <ele>286.1</ele>
        <time>2020-08-14T11:22:04Z</time>
      </trkpt>
      <trkpt lat="48.75115" lon="7.26969">
        <ele>285.6</ele>
        <time>2020-08-14T11:22:06Z</time>
      </trkpt>
      <trkpt lat="48.75102" lon="7.26973">
        <ele>284.6</ele>
        <time>2020-08-14T11:22:08Z</time>
      </trkpt>
      <trkpt lat="48.75091" lon="7.26979">
        <ele>284</ele>
        <time>2020-08-14T11:22:10Z</time>
      </trkpt>
      <trkpt lat="48.7508" lon="7.26991">
        <ele>283.9</ele>
        <time>2020-08-14T11:22:12Z</time>
      </trkpt>
      <trkpt lat="48.75072" lon="7.27004">
        <ele>284.2</ele>
        <time>2020-08-14T11:22:14Z</time>
      </trkpt>
      <trkpt lat="48.75064" lon="7.27016">
        <ele>283.4</ele>
        <time>2020-08-14T11:22:16Z</time>
      </trkpt>
      <trkpt lat="48.75058" lon="7.27027">
        <ele>282.2</ele>
        <time>2020-08-14T11:22:18Z</time>
      </trkpt>
      <trkpt lat="48.75056" lon="7.27033">
        <ele>279.4</ele>
        <time>2020-08-14T11:22:21Z</time>
      </trkpt>
      <trkpt lat="48.75051" lon="7.27035">
        <ele>275.3</ele>
        <time>2020-08-14T11:22:26Z</time>
      </trkpt>
      <trkpt lat="48.75047" lon="7.2704">
        <ele>274.6</ele>
        <time>2020-08-14T11:23:07Z</time>
      </trkpt>
      <trkpt lat="48.75042" lon="7.27047">
        <ele>273.8</ele>
        <time>2020-08-14T11:23:10Z</time>
      </trkpt>
      <trkpt lat="48.75038" lon="7.27053">
        <ele>272.8</ele>
        <time>2020-08-14T11:23:12Z</time>
      </trkpt>
      <trkpt lat="48.75033" lon="7.27062">
        <ele>272.1</ele>
        <time>2020-08-14T11:23:14Z</time>
      </trkpt>
      <trkpt lat="48.75028" lon="7.2707">
        <ele>271.4</ele>
        <time>2020-08-14T11:23:16Z</time>
      </trkpt>
      <trkpt lat="48.75021" lon="7.27079">
        <ele>270.3</ele>
        <time>2020-08-14T11:23:18Z</time>
      </trkpt>
      <trkpt lat="48.75015" lon="7.27089">
        <ele>268.9</ele>
        <time>2020-08-14T11:23:20Z</time>
      </trkpt>
      <trkpt lat="48.75009" lon="7.271">
        <ele>267.9</ele>
        <time>2020-08-14T11:23:22Z</time>
      </trkpt>
      <trkpt lat="48.75004" lon="7.2711">
        <ele>265.3</ele>
        <time>2020-08-14T11:23:24Z</time>
      </trkpt>
      <trkpt lat="48.75" lon="7.27118">
        <ele>264.4</ele>
        <time>2020-08-14T11:23:26Z</time>
      </trkpt>
      <trkpt lat="48.74994" lon="7.27126">
        <ele>263.2</ele>
        <time>2020-08-14T11:23:28Z</time>
      </trkpt>
      <trkpt lat="48.74988" lon="7.27134">
        <ele>261.8</ele>
        <time>2020-08-14T11:23:30Z</time>
      </trkpt>
      <trkpt lat="48.74982" lon="7.27141">
        <ele>260.1</ele>
        <time>2020-08-14T11:23:32Z</time>
      </trkpt>
      <trkpt lat="48.74976" lon="7.27149">
        <ele>258</ele>
        <time>2020-08-14T11:23:34Z</time>
      </trkpt>
      <trkpt lat="48.7497" lon="7.27157">
        <ele>256.4</ele>
        <time>2020-08-14T11:23:36Z</time>
      </trkpt>
      <trkpt lat="48.74964" lon="7.27164">
        <ele>253.9</ele>
        <time>2020-08-14T11:23:38Z</time>
      </trkpt>
      <trkpt lat="48.74958" lon="7.27171">
        <ele>252.7</ele>
        <time>2020-08-14T11:23:40Z</time>
      </trkpt>
      <trkpt lat="48.74953" lon="7.27177">
        <ele>251.4</ele>
        <time>2020-08-14T11:23:42Z</time>
      </trkpt>
      <trkpt lat="48.74948" lon="7.27184">
        <ele>250.7</ele>
        <time>2020-08-14T11:23:44Z</time>
      </trkpt>
      <trkpt lat="48.74942" lon="7.2719">
        <ele>250.5</ele>
        <time>2020-08-14T11:23:46Z</time>
      </trkpt>
      <trkpt lat="48.74935" lon="7.27197">
        <ele>249.9</ele>
        <time>2020-08-14T11:23:48Z</time>
      </trkpt>
      <trkpt lat="48.74928" lon="7.27202">
        <ele>250.2</ele>
        <time>2020-08-14T11:23:50Z</time>
      </trkpt>
      <trkpt lat="48.74922" lon="7.27207">
        <ele>250.1</ele>
        <time>2020-08-14T11:23:52Z</time>
      </trkpt>
      <trkpt lat="48.74919" lon="7.27212">
        <ele>250.9</ele>
        <time>2020-08-14T11:23:57Z</time>
      </trkpt>
      <trkpt lat="48.74914" lon="7.27213">
        <ele>254.1</ele>
        <time>2020-08-14T11:24:09Z</time>
      </trkpt>
      <trkpt lat="48.74911" lon="7.27219">
        <ele>255.1</ele>
        <time>2020-08-14T11:24:11Z</time>
      </trkpt>
      <trkpt lat="48.74907" lon="7.27227">
        <ele>255.5</ele>
        <time>2020-08-14T11:24:13Z</time>
      </trkpt>
      <trkpt lat="48.74902" lon="7.27236">
        <ele>255.8</ele>
        <time>2020-08-14T11:24:15Z</time>
      </trkpt>
      <trkpt lat="48.74896" lon="7.27248">
        <ele>255.5</ele>
        <time>2020-08-14T11:24:17Z</time>
      </trkpt>
      <trkpt lat="48.74889" lon="7.27261">
        <ele>255</ele>
        <time>2020-08-14T11:24:19Z</time>
      </trkpt>
      <trkpt lat="48.74883" lon="7.27274">
        <ele>254.8</ele>
        <time>2020-08-14T11:24:21Z</time>
      </trkpt>
      <trkpt lat="48.74874" lon="7.27286">
        <ele>254</ele>
        <time>2020-08-14T11:24:23Z</time>
      </trkpt>
      <trkpt lat="48.74866" lon="7.27298">
        <ele>253.5</ele>
        <time>2020-08-14T11:24:25Z</time>
      </trkpt>
      <trkpt lat="48.74859" lon="7.2731">
        <ele>253.1</ele>
        <time>2020-08-14T11:24:27Z</time>
      </trkpt>
      <trkpt lat="48.74852" lon="7.27321">
        <ele>253</ele>
        <time>2020-08-14T11:24:29Z</time>
      </trkpt>
      <trkpt lat="48.74845" lon="7.27335">
        <ele>252.5</ele>
        <time>2020-08-14T11:24:31Z</time>
      </trkpt>
      <trkpt lat="48.74838" lon="7.2735">
        <ele>252.2</ele>
        <time>2020-08-14T11:24:33Z</time>
      </trkpt>
      <trkpt lat="48.74831" lon="7.27365">
        <ele>252.2</ele>
        <time>2020-08-14T11:24:35Z</time>
      </trkpt>
      <trkpt lat="48.74825" lon="7.27382">
        <ele>252.3</ele>
        <time>2020-08-14T11:24:37Z</time>
      </trkpt>
      <trkpt lat="48.74819" lon="7.27399">
        <ele>252.2</ele>
        <time>2020-08-14T11:24:39Z</time>
      </trkpt>
      <trkpt lat="48.74812" lon="7.27416">
        <ele>252.1</ele>
        <time>2020-08-14T11:24:41Z</time>
      </trkpt>
      <trkpt lat="48.74805" lon="7.27431">
        <ele>251</ele>
        <time>2020-08-14T11:24:43Z</time>
      </trkpt>
      <trkpt lat="48.74799" lon="7.27446">
        <ele>251.6</ele>
        <time>2020-08-14T11:24:45Z</time>
      </trkpt>
      <trkpt lat="48.74793" lon="7.27462">
        <ele>252</ele>
        <time>2020-08-14T11:24:47Z</time>
      </trkpt>
      <trkpt lat="48.74788" lon="7.27476">
        <ele>252.5</ele>
        <time>2020-08-14T11:24:49Z</time>
      </trkpt>
      <trkpt lat="48.74785" lon="7.27492">
        <ele>252.8</ele>
        <time>2020-08-14T11:24:51Z</time>
      </trkpt>
      <trkpt lat="48.7478" lon="7.27506">
        <ele>253.6</ele>
        <time>2020-08-14T11:24:53Z</time>
      </trkpt>
      <trkpt lat="48.74774" lon="7.27517">
        <ele>253.9</ele>
        <time>2020-08-14T11:24:55Z</time>
      </trkpt>
      <trkpt lat="48.74766" lon="7.27529">
        <ele>253.8</ele>
        <time>2020-08-14T11:24:57Z</time>
      </trkpt>
      <trkpt lat="48.7476" lon="7.27541">
        <ele>253.1</ele>
        <time>2020-08-14T11:24:59Z</time>
      </trkpt>
      <trkpt lat="48.74755" lon="7.27556">
        <ele>252</ele>
        <time>2020-08-14T11:25:01Z</time>
      </trkpt>
      <trkpt lat="48.7475" lon="7.2757">
        <ele>251.7</ele>
        <time>2020-08-14T11:25:03Z</time>
      </trkpt>
      <trkpt lat="48.74746" lon="7.27584">
        <ele>251.4</ele>
        <time>2020-08-14T11:25:05Z</time>
      </trkpt>
      <trkpt lat="48.74743" lon="7.27596">
        <ele>251.6</ele>
        <time>2020-08-14T11:25:07Z</time>
      </trkpt>
      <trkpt lat="48.74739" lon="7.27608">
        <ele>251.7</ele>
        <time>2020-08-14T11:25:09Z</time>
      </trkpt>
      <trkpt lat="48.74734" lon="7.27618">
        <ele>251.1</ele>
        <time>2020-08-14T11:25:11Z</time>
      </trkpt>
      <trkpt lat="48.74728" lon="7.27627">
        <ele>251.2</ele>
        <time>2020-08-14T11:25:13Z</time>
      </trkpt>
      <trkpt lat="48.74724" lon="7.27635">
        <ele>251.2</ele>
        <time>2020-08-14T11:25:15Z</time>
      </trkpt>
      <trkpt lat="48.74721" lon="7.27642">
        <ele>248.6</ele>
        <time>2020-08-14T11:25:19Z</time>
      </trkpt>
      <trkpt lat="48.74721" lon="7.27649">
        <ele>246.2</ele>
        <time>2020-08-14T11:25:31Z</time>
      </trkpt>
      <trkpt lat="48.74717" lon="7.27657">
        <ele>246.7</ele>
        <time>2020-08-14T11:25:34Z</time>
      </trkpt>
      <trkpt lat="48.74713" lon="7.27665">
        <ele>247.2</ele>
        <time>2020-08-14T11:25:36Z</time>
      </trkpt>
      <trkpt lat="48.7471" lon="7.27672">
        <ele>248.4</ele>
        <time>2020-08-14T11:25:38Z</time>
      </trkpt>
      <trkpt lat="48.74707" lon="7.27679">
        <ele>249</ele>
        <time>2020-08-14T11:25:40Z</time>
      </trkpt>
      <trkpt lat="48.74706" lon="7.27686">
        <ele>249.7</ele>
        <time>2020-08-14T11:25:42Z</time>
      </trkpt>
      <trkpt lat="48.74704" lon="7.27694">
        <ele>249.2</ele>
        <time>2020-08-14T11:25:44Z</time>
      </trkpt>
      <trkpt lat="48.74702" lon="7.27704">
        <ele>249.5</ele>
        <time>2020-08-14T11:25:46Z</time>
      </trkpt>
      <trkpt lat="48.74699" lon="7.27714">
        <ele>250.2</ele>
        <time>2020-08-14T11:25:48Z</time>
      </trkpt>
      <trkpt lat="48.74698" lon="7.27724">
        <ele>251.5</ele>
        <time>2020-08-14T11:25:50Z</time>
      </trkpt>
      <trkpt lat="48.74696" lon="7.27736">
        <ele>252.6</ele>
        <time>2020-08-14T11:25:52Z</time>
      </trkpt>
      <trkpt lat="48.74693" lon="7.27747">
        <ele>254.3</ele>
        <time>2020-08-14T11:25:54Z</time>
      </trkpt>
      <trkpt lat="48.7469" lon="7.27756">
        <ele>255.7</ele>
        <time>2020-08-14T11:25:56Z</time>
      </trkpt>
      <trkpt lat="48.74687" lon="7.27766">
        <ele>256.8</ele>
        <time>2020-08-14T11:25:58Z</time>
      </trkpt>
      <trkpt lat="48.74684" lon="7.27776">
        <ele>257.9</ele>
        <time>2020-08-14T11:26:00Z</time>
      </trkpt>
      <trkpt lat="48.74681" lon="7.27787">
        <ele>258.9</ele>
        <time>2020-08-14T11:26:02Z</time>
      </trkpt>
      <trkpt lat="48.74677" lon="7.27798">
        <ele>260.1</ele>
        <time>2020-08-14T11:26:04Z</time>
      </trkpt>
      <trkpt lat="48.74673" lon="7.2781">
        <ele>262.2</ele>
        <time>2020-08-14T11:26:06Z</time>
      </trkpt>
      <trkpt lat="48.74669" lon="7.2782">
        <ele>264.1</ele>
        <time>2020-08-14T11:26:08Z</time>
      </trkpt>
      <trkpt lat="48.74665" lon="7.27828">
        <ele>266</ele>
        <time>2020-08-14T11:26:10Z</time>
      </trkpt>
      <trkpt lat="48.74659" lon="7.27837">
        <ele>267.3</ele>
        <time>2020-08-14T11:26:12Z</time>
      </trkpt>
      <trkpt lat="48.74653" lon="7.27846">
        <ele>268.7</ele>
        <time>2020-08-14T11:26:14Z</time>
      </trkpt>
      <trkpt lat="48.74647" lon="7.27855">
        <ele>270.2</ele>
        <time>2020-08-14T11:26:16Z</time>
      </trkpt>
      <trkpt lat="48.74642" lon="7.27864">
        <ele>270.9</ele>
        <time>2020-08-14T11:26:18Z</time>
      </trkpt>
      <trkpt lat="48.74636" lon="7.27872">
        <ele>272</ele>
        <time>2020-08-14T11:26:20Z</time>
      </trkpt>
      <trkpt lat="48.74631" lon="7.27879">
        <ele>272.2</ele>
        <time>2020-08-14T11:26:22Z</time>
      </trkpt>
      <trkpt lat="48.74626" lon="7.27886">
        <ele>272</ele>
        <time>2020-08-14T11:26:24Z</time>
      </trkpt>
      <trkpt lat="48.7462" lon="7.27893">
        <ele>270.7</ele>
        <time>2020-08-14T11:26:26Z</time>
      </trkpt>
      <trkpt lat="48.74613" lon="7.27898">
        <ele>270.3</ele>
        <time>2020-08-14T11:26:28Z</time>
      </trkpt>
      <trkpt lat="48.74607" lon="7.27904">
        <ele>269.4</ele>
        <time>2020-08-14T11:26:30Z</time>
      </trkpt>
      <trkpt lat="48.74601" lon="7.27912">
        <ele>270.5</ele>
        <time>2020-08-14T11:26:32Z</time>
      </trkpt>
      <trkpt lat="48.74594" lon="7.27921">
        <ele>271.8</ele>
        <time>2020-08-14T11:26:34Z</time>
      </trkpt>
      <trkpt lat="48.74588" lon="7.27928">
        <ele>272.7</ele>
        <time>2020-08-14T11:26:36Z</time>
      </trkpt>
      <trkpt lat="48.74583" lon="7.27934">
        <ele>273.3</ele>
        <time>2020-08-14T11:26:38Z</time>
      </trkpt>
      <trkpt lat="48.74578" lon="7.27939">
        <ele>274.6</ele>
        <time>2020-08-14T11:26:40Z</time>
      </trkpt>
      <trkpt lat="48.74573" lon="7.27945">
        <ele>274.7</ele>
        <time>2020-08-14T11:26:43Z</time>
      </trkpt>
      <trkpt lat="48.74569" lon="7.27949">
        <ele>275.2</ele>
        <time>2020-08-14T11:26:48Z</time>
      </trkpt>
      <trkpt lat="48.74565" lon="7.27951">
        <ele>277.8</ele>
        <time>2020-08-14T11:27:07Z</time>
      </trkpt>
      <trkpt lat="48.74561" lon="7.27955">
        <ele>279.8</ele>
        <time>2020-08-14T11:27:20Z</time>
      </trkpt>
      <trkpt lat="48.74558" lon="7.27961">
        <ele>279.8</ele>
        <time>2020-08-14T11:27:22Z</time>
      </trkpt>
      <trkpt lat="48.7455" lon="7.27971">
        <ele>280.9</ele>
        <time>2020-08-14T11:27:25Z</time>
      </trkpt>
      <trkpt lat="48.74545" lon="7.27978">
        <ele>281.8</ele>
        <time>2020-08-14T11:27:27Z</time>
      </trkpt>
      <trkpt lat="48.7454" lon="7.27985">
        <ele>283.4</ele>
        <time>2020-08-14T11:27:29Z</time>
      </trkpt>
      <trkpt lat="48.74535" lon="7.27992">
        <ele>284.7</ele>
        <time>2020-08-14T11:27:31Z</time>
      </trkpt>
      <trkpt lat="48.74524" lon="7.28001">
        <ele>285.4</ele>
        <time>2020-08-14T11:27:34Z</time>
      </trkpt>
      <trkpt lat="48.74519" lon="7.28008">
        <ele>285.5</ele>
        <time>2020-08-14T11:27:36Z</time>
      </trkpt>
      <trkpt lat="48.74515" lon="7.28015">
        <ele>286.2</ele>
        <time>2020-08-14T11:27:38Z</time>
      </trkpt>
      <trkpt lat="48.7451" lon="7.28021">
        <ele>286.4</ele>
        <time>2020-08-14T11:27:40Z</time>
      </trkpt>
      <trkpt lat="48.74505" lon="7.28028">
        <ele>286.4</ele>
        <time>2020-08-14T11:27:42Z</time>
      </trkpt>
      <trkpt lat="48.74501" lon="7.28034">
        <ele>286.2</ele>
        <time>2020-08-14T11:27:44Z</time>
      </trkpt>
      <trkpt lat="48.74495" lon="7.28041">
        <ele>286</ele>
        <time>2020-08-14T11:27:46Z</time>
      </trkpt>
      <trkpt lat="48.74485" lon="7.28047">
        <ele>285.5</ele>
        <time>2020-08-14T11:27:48Z</time>
      </trkpt>
      <trkpt lat="48.74477" lon="7.28057">
        <ele>285.4</ele>
        <time>2020-08-14T11:27:50Z</time>
      </trkpt>
      <trkpt lat="48.74471" lon="7.28065">
        <ele>285.1</ele>
        <time>2020-08-14T11:27:52Z</time>
      </trkpt>
      <trkpt lat="48.74462" lon="7.28077">
        <ele>284.9</ele>
        <time>2020-08-14T11:27:55Z</time>
      </trkpt>
      <trkpt lat="48.74458" lon="7.28085">
        <ele>285.8</ele>
        <time>2020-08-14T11:27:57Z</time>
      </trkpt>
      <trkpt lat="48.74454" lon="7.2809">
        <ele>286.7</ele>
        <time>2020-08-14T11:27:59Z</time>
      </trkpt>
      <trkpt lat="48.74449" lon="7.28097">
        <ele>287.3</ele>
        <time>2020-08-14T11:28:02Z</time>
      </trkpt>
      <trkpt lat="48.74445" lon="7.28103">
        <ele>287.7</ele>
        <time>2020-08-14T11:28:04Z</time>
      </trkpt>
      <trkpt lat="48.7444" lon="7.2811">
        <ele>288.1</ele>
        <time>2020-08-14T11:28:06Z</time>
      </trkpt>
      <trkpt lat="48.74436" lon="7.28116">
        <ele>288.8</ele>
        <time>2020-08-14T11:28:08Z</time>
      </trkpt>
      <trkpt lat="48.74429" lon="7.28126">
        <ele>290.5</ele>
        <time>2020-08-14T11:28:11Z</time>
      </trkpt>
      <trkpt lat="48.74424" lon="7.28131">
        <ele>291.1</ele>
        <time>2020-08-14T11:28:13Z</time>
      </trkpt>
      <trkpt lat="48.74419" lon="7.28134">
        <ele>291.8</ele>
        <time>2020-08-14T11:28:15Z</time>
      </trkpt>
      <trkpt lat="48.74415" lon="7.28137">
        <ele>291.2</ele>
        <time>2020-08-14T11:28:17Z</time>
      </trkpt>
      <trkpt lat="48.74409" lon="7.28142">
        <ele>291.2</ele>
        <time>2020-08-14T11:28:19Z</time>
      </trkpt>
      <trkpt lat="48.74403" lon="7.28149">
        <ele>291</ele>
        <time>2020-08-14T11:28:21Z</time>
      </trkpt>
      <trkpt lat="48.74395" lon="7.28156">
        <ele>291</ele>
        <time>2020-08-14T11:28:23Z</time>
      </trkpt>
      <trkpt lat="48.74386" lon="7.28163">
        <ele>291.2</ele>
        <time>2020-08-14T11:28:25Z</time>
      </trkpt>
      <trkpt lat="48.74378" lon="7.28172">
        <ele>291.1</ele>
        <time>2020-08-14T11:28:27Z</time>
      </trkpt>
      <trkpt lat="48.74369" lon="7.28179">
        <ele>292.2</ele>
        <time>2020-08-14T11:28:29Z</time>
      </trkpt>
      <trkpt lat="48.74362" lon="7.28186">
        <ele>292.7</ele>
        <time>2020-08-14T11:28:31Z</time>
      </trkpt>
      <trkpt lat="48.74353" lon="7.28193">
        <ele>292.2</ele>
        <time>2020-08-14T11:28:33Z</time>
      </trkpt>
      <trkpt lat="48.74345" lon="7.28198">
        <ele>291.5</ele>
        <time>2020-08-14T11:28:35Z</time>
      </trkpt>
      <trkpt lat="48.74337" lon="7.28205">
        <ele>291.6</ele>
        <time>2020-08-14T11:28:37Z</time>
      </trkpt>
      <trkpt lat="48.7433" lon="7.28213">
        <ele>291.4</ele>
        <time>2020-08-14T11:28:39Z</time>
      </trkpt>
      <trkpt lat="48.74324" lon="7.2822">
        <ele>291.7</ele>
        <time>2020-08-14T11:28:41Z</time>
      </trkpt>
      <trkpt lat="48.74319" lon="7.28226">
        <ele>291.9</ele>
        <time>2020-08-14T11:28:43Z</time>
      </trkpt>
      <trkpt lat="48.74313" lon="7.28234">
        <ele>292.6</ele>
        <time>2020-08-14T11:28:45Z</time>
      </trkpt>
      <trkpt lat="48.74307" lon="7.28241">
        <ele>292.9</ele>
        <time>2020-08-14T11:28:47Z</time>
      </trkpt>
      <trkpt lat="48.74299" lon="7.28247">
        <ele>292.8</ele>
        <time>2020-08-14T11:28:49Z</time>
      </trkpt>
      <trkpt lat="48.74291" lon="7.28254">
        <ele>293.3</ele>
        <time>2020-08-14T11:28:51Z</time>
      </trkpt>
      <trkpt lat="48.74284" lon="7.28261">
        <ele>294</ele>
        <time>2020-08-14T11:28:53Z</time>
      </trkpt>
      <trkpt lat="48.74277" lon="7.28268">
        <ele>295.8</ele>
        <time>2020-08-14T11:28:55Z</time>
      </trkpt>
      <trkpt lat="48.74271" lon="7.28274">
        <ele>298.1</ele>
        <time>2020-08-14T11:28:57Z</time>
      </trkpt>
      <trkpt lat="48.74265" lon="7.28281">
        <ele>299.4</ele>
        <time>2020-08-14T11:28:59Z</time>
      </trkpt>
      <trkpt lat="48.74258" lon="7.28287">
        <ele>300.1</ele>
        <time>2020-08-14T11:29:01Z</time>
      </trkpt>
      <trkpt lat="48.74253" lon="7.28292">
        <ele>301.8</ele>
        <time>2020-08-14T11:29:03Z</time>
      </trkpt>
      <trkpt lat="48.74248" lon="7.28298">
        <ele>302.9</ele>
        <time>2020-08-14T11:29:05Z</time>
      </trkpt>
      <trkpt lat="48.74243" lon="7.28302">
        <ele>304.4</ele>
        <time>2020-08-14T11:29:07Z</time>
      </trkpt>
      <trkpt lat="48.74239" lon="7.28307">
        <ele>306.3</ele>
        <time>2020-08-14T11:29:09Z</time>
      </trkpt>
      <trkpt lat="48.74236" lon="7.28312">
        <ele>308.8</ele>
        <time>2020-08-14T11:29:16Z</time>
      </trkpt>
      <trkpt lat="48.74241" lon="7.28315">
        <ele>306</ele>
        <time>2020-08-14T11:29:26Z</time>
      </trkpt>
      <trkpt lat="48.74247" lon="7.28315">
        <ele>306.1</ele>
        <time>2020-08-14T11:29:29Z</time>
      </trkpt>
      <trkpt lat="48.74252" lon="7.28314">
        <ele>306.8</ele>
        <time>2020-08-14T11:29:32Z</time>
      </trkpt>
      <trkpt lat="48.74247" lon="7.2832">
        <ele>307.6</ele>
        <time>2020-08-14T11:29:47Z</time>
      </trkpt>
      <trkpt lat="48.74242" lon="7.28324">
        <ele>308.6</ele>
        <time>2020-08-14T11:29:50Z</time>
      </trkpt>
      <trkpt lat="48.74237" lon="7.28328">
        <ele>308.9</ele>
        <time>2020-08-14T11:29:52Z</time>
      </trkpt>
      <trkpt lat="48.7423" lon="7.28332">
        <ele>308.8</ele>
        <time>2020-08-14T11:29:54Z</time>
      </trkpt>
      <trkpt lat="48.74223" lon="7.28336">
        <ele>308.9</ele>
        <time>2020-08-14T11:29:56Z</time>
      </trkpt>
      <trkpt lat="48.74216" lon="7.28339">
        <ele>308.8</ele>
        <time>2020-08-14T11:29:58Z</time>
      </trkpt>
      <trkpt lat="48.7421" lon="7.28344">
        <ele>309.5</ele>
        <time>2020-08-14T11:30:00Z</time>
      </trkpt>
      <trkpt lat="48.74205" lon="7.2835">
        <ele>310.2</ele>
        <time>2020-08-14T11:30:02Z</time>
      </trkpt>
      <trkpt lat="48.74201" lon="7.28358">
        <ele>311.1</ele>
        <time>2020-08-14T11:30:04Z</time>
      </trkpt>
      <trkpt lat="48.74199" lon="7.28367">
        <ele>311.9</ele>
        <time>2020-08-14T11:30:06Z</time>
      </trkpt>
      <trkpt lat="48.74196" lon="7.28375">
        <ele>313.5</ele>
        <time>2020-08-14T11:30:08Z</time>
      </trkpt>
      <trkpt lat="48.74189" lon="7.28384">
        <ele>314.8</ele>
        <time>2020-08-14T11:30:11Z</time>
      </trkpt>
      <trkpt lat="48.74184" lon="7.28389">
        <ele>316.2</ele>
        <time>2020-08-14T11:30:13Z</time>
      </trkpt>
      <trkpt lat="48.74178" lon="7.28393">
        <ele>318.3</ele>
        <time>2020-08-14T11:30:15Z</time>
      </trkpt>
      <trkpt lat="48.74169" lon="7.28396">
        <ele>320.1</ele>
        <time>2020-08-14T11:30:17Z</time>
      </trkpt>
      <trkpt lat="48.74159" lon="7.28399">
        <ele>321.9</ele>
        <time>2020-08-14T11:30:19Z</time>
      </trkpt>
      <trkpt lat="48.7415" lon="7.28401">
        <ele>323.8</ele>
        <time>2020-08-14T11:30:21Z</time>
      </trkpt>
      <trkpt lat="48.74136" lon="7.28405">
        <ele>325.1</ele>
        <time>2020-08-14T11:30:24Z</time>
      </trkpt>
      <trkpt lat="48.74128" lon="7.28409">
        <ele>325.9</ele>
        <time>2020-08-14T11:30:26Z</time>
      </trkpt>
      <trkpt lat="48.7412" lon="7.28412">
        <ele>325.7</ele>
        <time>2020-08-14T11:30:28Z</time>
      </trkpt>
      <trkpt lat="48.74111" lon="7.28417">
        <ele>325.9</ele>
        <time>2020-08-14T11:30:30Z</time>
      </trkpt>
      <trkpt lat="48.74102" lon="7.28423">
        <ele>325.7</ele>
        <time>2020-08-14T11:30:32Z</time>
      </trkpt>
      <trkpt lat="48.74092" lon="7.28432">
        <ele>325.4</ele>
        <time>2020-08-14T11:30:34Z</time>
      </trkpt>
      <trkpt lat="48.74082" lon="7.28443">
        <ele>324.8</ele>
        <time>2020-08-14T11:30:36Z</time>
      </trkpt>
      <trkpt lat="48.74072" lon="7.28455">
        <ele>324.7</ele>
        <time>2020-08-14T11:30:38Z</time>
      </trkpt>
      <trkpt lat="48.74061" lon="7.28465">
        <ele>324.7</ele>
        <time>2020-08-14T11:30:40Z</time>
      </trkpt>
      <trkpt lat="48.74044" lon="7.28479">
        <ele>324.6</ele>
        <time>2020-08-14T11:30:43Z</time>
      </trkpt>
      <trkpt lat="48.74032" lon="7.28489">
        <ele>324.7</ele>
        <time>2020-08-14T11:30:45Z</time>
      </trkpt>
      <trkpt lat="48.74021" lon="7.28499">
        <ele>324.7</ele>
        <time>2020-08-14T11:30:47Z</time>
      </trkpt>
      <trkpt lat="48.7401" lon="7.28511">
        <ele>325.3</ele>
        <time>2020-08-14T11:30:49Z</time>
      </trkpt>
      <trkpt lat="48.74001" lon="7.28522">
        <ele>325.3</ele>
        <time>2020-08-14T11:30:51Z</time>
      </trkpt>
      <trkpt lat="48.7399" lon="7.28537">
        <ele>325.3</ele>
        <time>2020-08-14T11:30:54Z</time>
      </trkpt>
      <trkpt lat="48.73981" lon="7.2855">
        <ele>326.1</ele>
        <time>2020-08-14T11:30:57Z</time>
      </trkpt>
      <trkpt lat="48.73977" lon="7.28555">
        <ele>327.1</ele>
        <time>2020-08-14T11:31:00Z</time>
      </trkpt>
      <trkpt lat="48.73978" lon="7.28563">
        <ele>327.4</ele>
        <time>2020-08-14T11:31:36Z</time>
      </trkpt>
      <trkpt lat="48.7397" lon="7.28564">
        <ele>327.1</ele>
        <time>2020-08-14T11:31:39Z</time>
      </trkpt>
      <trkpt lat="48.73963" lon="7.28561">
        <ele>327.1</ele>
        <time>2020-08-14T11:31:41Z</time>
      </trkpt>
      <trkpt lat="48.73953" lon="7.28558">
        <ele>326.7</ele>
        <time>2020-08-14T11:31:43Z</time>
      </trkpt>
      <trkpt lat="48.73935" lon="7.28554">
        <ele>324.5</ele>
        <time>2020-08-14T11:31:45Z</time>
      </trkpt>
      <trkpt lat="48.73928" lon="7.28554">
        <ele>323.8</ele>
        <time>2020-08-14T11:31:47Z</time>
      </trkpt>
      <trkpt lat="48.73922" lon="7.28556">
        <ele>323.4</ele>
        <time>2020-08-14T11:31:49Z</time>
      </trkpt>
      <trkpt lat="48.73915" lon="7.28559">
        <ele>323.5</ele>
        <time>2020-08-14T11:31:51Z</time>
      </trkpt>
      <trkpt lat="48.73909" lon="7.28559">
        <ele>323.5</ele>
        <time>2020-08-14T11:31:53Z</time>
      </trkpt>
      <trkpt lat="48.73904" lon="7.28558">
        <ele>324</ele>
        <time>2020-08-14T11:32:07Z</time>
      </trkpt>
      <trkpt lat="48.7389" lon="7.28548">
        <ele>324.7</ele>
        <time>2020-08-14T11:32:09Z</time>
      </trkpt>
      <trkpt lat="48.73878" lon="7.28548">
        <ele>325</ele>
        <time>2020-08-14T11:32:11Z</time>
      </trkpt>
      <trkpt lat="48.73869" lon="7.28552">
        <ele>324.5</ele>
        <time>2020-08-14T11:32:17Z</time>
      </trkpt>
      <trkpt lat="48.73861" lon="7.28562">
        <ele>323.1</ele>
        <time>2020-08-14T11:32:19Z</time>
      </trkpt>
      <trkpt lat="48.73851" lon="7.2856">
        <ele>321.5</ele>
        <time>2020-08-14T11:32:22Z</time>
      </trkpt>
      <trkpt lat="48.73844" lon="7.28558">
        <ele>320.3</ele>
        <time>2020-08-14T11:32:24Z</time>
      </trkpt>
      <trkpt lat="48.73833" lon="7.2856">
        <ele>317.8</ele>
        <time>2020-08-14T11:32:27Z</time>
      </trkpt>
      <trkpt lat="48.73826" lon="7.28564">
        <ele>316.5</ele>
        <time>2020-08-14T11:32:29Z</time>
      </trkpt>
      <trkpt lat="48.73818" lon="7.28565">
        <ele>315.2</ele>
        <time>2020-08-14T11:32:31Z</time>
      </trkpt>
      <trkpt lat="48.73811" lon="7.28566">
        <ele>313.1</ele>
        <time>2020-08-14T11:32:33Z</time>
      </trkpt>
      <trkpt lat="48.73803" lon="7.28567">
        <ele>311.6</ele>
        <time>2020-08-14T11:32:35Z</time>
      </trkpt>
      <trkpt lat="48.73797" lon="7.28566">
        <ele>310.5</ele>
        <time>2020-08-14T11:32:37Z</time>
      </trkpt>
      <trkpt lat="48.73789" lon="7.28564">
        <ele>309.6</ele>
        <time>2020-08-14T11:32:40Z</time>
      </trkpt>
      <trkpt lat="48.73784" lon="7.28561">
        <ele>307.7</ele>
        <time>2020-08-14T11:32:46Z</time>
      </trkpt>
      <trkpt lat="48.73778" lon="7.28555">
        <ele>307.6</ele>
        <time>2020-08-14T11:32:49Z</time>
      </trkpt>
      <trkpt lat="48.73775" lon="7.28549">
        <ele>306.5</ele>
        <time>2020-08-14T11:32:51Z</time>
      </trkpt>
      <trkpt lat="48.73771" lon="7.28545">
        <ele>306</ele>
        <time>2020-08-14T11:32:53Z</time>
      </trkpt>
      <trkpt lat="48.73766" lon="7.2854">
        <ele>305.5</ele>
        <time>2020-08-14T11:32:58Z</time>
      </trkpt>
      <trkpt lat="48.73746" lon="7.28535">
        <ele>304</ele>
        <time>2020-08-14T11:33:00Z</time>
      </trkpt>
      <trkpt lat="48.73728" lon="7.28536">
        <ele>302.3</ele>
        <time>2020-08-14T11:33:03Z</time>
      </trkpt>
      <trkpt lat="48.73718" lon="7.28538">
        <ele>301</ele>
        <time>2020-08-14T11:33:05Z</time>
      </trkpt>
      <trkpt lat="48.73708" lon="7.28542">
        <ele>300.3</ele>
        <time>2020-08-14T11:33:08Z</time>
      </trkpt>
      <trkpt lat="48.73707" lon="7.2855">
        <ele>299.8</ele>
        <time>2020-08-14T11:33:19Z</time>
      </trkpt>
      <trkpt lat="48.73708" lon="7.2856">
        <ele>298.6</ele>
        <time>2020-08-14T11:33:22Z</time>
      </trkpt>
      <trkpt lat="48.7371" lon="7.28568">
        <ele>297.9</ele>
        <time>2020-08-14T11:33:24Z</time>
      </trkpt>
      <trkpt lat="48.73712" lon="7.28574">
        <ele>297.1</ele>
        <time>2020-08-14T11:33:26Z</time>
      </trkpt>
      <trkpt lat="48.73715" lon="7.28581">
        <ele>296.3</ele>
        <time>2020-08-14T11:33:28Z</time>
      </trkpt>
      <trkpt lat="48.73716" lon="7.2859">
        <ele>296</ele>
        <time>2020-08-14T11:33:30Z</time>
      </trkpt>
      <trkpt lat="48.73715" lon="7.28597">
        <ele>295.3</ele>
        <time>2020-08-14T11:33:32Z</time>
      </trkpt>
      <trkpt lat="48.73713" lon="7.28604">
        <ele>294.3</ele>
        <time>2020-08-14T11:33:34Z</time>
      </trkpt>
      <trkpt lat="48.7371" lon="7.2861">
        <ele>292.4</ele>
        <time>2020-08-14T11:33:36Z</time>
      </trkpt>
      <trkpt lat="48.73704" lon="7.28615">
        <ele>290.3</ele>
        <time>2020-08-14T11:33:38Z</time>
      </trkpt>
      <trkpt lat="48.73694" lon="7.28616">
        <ele>289.2</ele>
        <time>2020-08-14T11:33:40Z</time>
      </trkpt>
      <trkpt lat="48.73683" lon="7.28619">
        <ele>287.4</ele>
        <time>2020-08-14T11:33:42Z</time>
      </trkpt>
      <trkpt lat="48.73673" lon="7.2862">
        <ele>285.9</ele>
        <time>2020-08-14T11:33:44Z</time>
      </trkpt>
      <trkpt lat="48.73666" lon="7.28618">
        <ele>284</ele>
        <time>2020-08-14T11:33:46Z</time>
      </trkpt>
      <trkpt lat="48.73658" lon="7.28617">
        <ele>282.3</ele>
        <time>2020-08-14T11:33:48Z</time>
      </trkpt>
      <trkpt lat="48.73653" lon="7.28617">
        <ele>281.6</ele>
        <time>2020-08-14T11:33:50Z</time>
      </trkpt>
      <trkpt lat="48.73647" lon="7.28616">
        <ele>280.5</ele>
        <time>2020-08-14T11:33:52Z</time>
      </trkpt>
      <trkpt lat="48.73641" lon="7.28615">
        <ele>279.2</ele>
        <time>2020-08-14T11:33:54Z</time>
      </trkpt>
      <trkpt lat="48.73633" lon="7.28615">
        <ele>277.8</ele>
        <time>2020-08-14T11:33:56Z</time>
      </trkpt>
      <trkpt lat="48.73625" lon="7.28616">
        <ele>276.7</ele>
        <time>2020-08-14T11:33:58Z</time>
      </trkpt>
      <trkpt lat="48.73617" lon="7.28618">
        <ele>275.5</ele>
        <time>2020-08-14T11:34:00Z</time>
      </trkpt>
      <trkpt lat="48.73599" lon="7.28622">
        <ele>273.6</ele>
        <time>2020-08-14T11:34:03Z</time>
      </trkpt>
      <trkpt lat="48.73587" lon="7.28625">
        <ele>272.6</ele>
        <time>2020-08-14T11:34:05Z</time>
      </trkpt>
      <trkpt lat="48.73574" lon="7.28628">
        <ele>271.6</ele>
        <time>2020-08-14T11:34:11Z</time>
      </trkpt>
      <trkpt lat="48.73552" lon="7.28635">
        <ele>268.9</ele>
        <time>2020-08-14T11:34:13Z</time>
      </trkpt>
      <trkpt lat="48.73541" lon="7.28639">
        <ele>267.5</ele>
        <time>2020-08-14T11:34:15Z</time>
      </trkpt>
      <trkpt lat="48.7353" lon="7.28644">
        <ele>267.1</ele>
        <time>2020-08-14T11:34:21Z</time>
      </trkpt>
      <trkpt lat="48.73512" lon="7.2865">
        <ele>266.4</ele>
        <time>2020-08-14T11:34:23Z</time>
      </trkpt>
      <trkpt lat="48.73505" lon="7.28648">
        <ele>266.6</ele>
        <time>2020-08-14T11:34:25Z</time>
      </trkpt>
      <trkpt lat="48.73497" lon="7.2865">
        <ele>266</ele>
        <time>2020-08-14T11:34:28Z</time>
      </trkpt>
      <trkpt lat="48.73492" lon="7.28653">
        <ele>264.8</ele>
        <time>2020-08-14T11:34:31Z</time>
      </trkpt>
      <trkpt lat="48.73485" lon="7.28653">
        <ele>263.3</ele>
        <time>2020-08-14T11:34:33Z</time>
      </trkpt>
      <trkpt lat="48.73477" lon="7.28653">
        <ele>262.4</ele>
        <time>2020-08-14T11:34:35Z</time>
      </trkpt>
      <trkpt lat="48.73468" lon="7.28652">
        <ele>261.3</ele>
        <time>2020-08-14T11:34:37Z</time>
      </trkpt>
      <trkpt lat="48.73455" lon="7.28648">
        <ele>259.8</ele>
        <time>2020-08-14T11:34:40Z</time>
      </trkpt>
      <trkpt lat="48.73447" lon="7.28645">
        <ele>259</ele>
        <time>2020-08-14T11:34:42Z</time>
      </trkpt>
      <trkpt lat="48.7344" lon="7.28644">
        <ele>257.4</ele>
        <time>2020-08-14T11:34:44Z</time>
      </trkpt>
      <trkpt lat="48.73432" lon="7.28645">
        <ele>256.2</ele>
        <time>2020-08-14T11:34:46Z</time>
      </trkpt>
      <trkpt lat="48.73421" lon="7.28648">
        <ele>254.7</ele>
        <time>2020-08-14T11:34:52Z</time>
      </trkpt>
      <trkpt lat="48.73403" lon="7.28655">
        <ele>253.5</ele>
        <time>2020-08-14T11:34:54Z</time>
      </trkpt>
      <trkpt lat="48.73393" lon="7.28658">
        <ele>252.5</ele>
        <time>2020-08-14T11:34:56Z</time>
      </trkpt>
      <trkpt lat="48.73385" lon="7.28659">
        <ele>251.6</ele>
        <time>2020-08-14T11:34:58Z</time>
      </trkpt>
      <trkpt lat="48.73378" lon="7.2866">
        <ele>250.2</ele>
        <time>2020-08-14T11:35:00Z</time>
      </trkpt>
      <trkpt lat="48.73373" lon="7.28661">
        <ele>249.1</ele>
        <time>2020-08-14T11:35:02Z</time>
      </trkpt>
      <trkpt lat="48.73365" lon="7.28659">
        <ele>246.7</ele>
        <time>2020-08-14T11:35:05Z</time>
      </trkpt>
      <trkpt lat="48.73357" lon="7.28656">
        <ele>244.4</ele>
        <time>2020-08-14T11:35:08Z</time>
      </trkpt>
      <trkpt lat="48.73348" lon="7.28655">
        <ele>241.1</ele>
        <time>2020-08-14T11:35:11Z</time>
      </trkpt>
      <trkpt lat="48.73342" lon="7.28656">
        <ele>239.2</ele>
        <time>2020-08-14T11:35:13Z</time>
      </trkpt>
      <trkpt lat="48.73332" lon="7.2866">
        <ele>237.5</ele>
        <time>2020-08-14T11:35:16Z</time>
      </trkpt>
      <trkpt lat="48.73324" lon="7.2866">
        <ele>235.4</ele>
        <time>2020-08-14T11:35:18Z</time>
      </trkpt>
      <trkpt lat="48.73315" lon="7.28657">
        <ele>233.1</ele>
        <time>2020-08-14T11:35:20Z</time>
      </trkpt>
      <trkpt lat="48.73303" lon="7.28656">
        <ele>231.4</ele>
        <time>2020-08-14T11:35:23Z</time>
      </trkpt>
      <trkpt lat="48.73295" lon="7.28657">
        <ele>230.5</ele>
        <time>2020-08-14T11:35:25Z</time>
      </trkpt>
      <trkpt lat="48.73288" lon="7.28657">
        <ele>229.6</ele>
        <time>2020-08-14T11:35:30Z</time>
      </trkpt>
      <trkpt lat="48.73281" lon="7.2866">
        <ele>229.1</ele>
        <time>2020-08-14T11:35:32Z</time>
      </trkpt>
      <trkpt lat="48.73268" lon="7.28663">
        <ele>227.8</ele>
        <time>2020-08-14T11:35:35Z</time>
      </trkpt>
      <trkpt lat="48.73263" lon="7.28665">
        <ele>227</ele>
        <time>2020-08-14T11:35:37Z</time>
      </trkpt>
      <trkpt lat="48.73269" lon="7.28666">
        <ele>224.7</ele>
        <time>2020-08-14T11:35:52Z</time>
      </trkpt>
      <trkpt lat="48.73274" lon="7.2867">
        <ele>225</ele>
        <time>2020-08-14T11:35:57Z</time>
      </trkpt>
      <trkpt lat="48.73278" lon="7.28665">
        <ele>221.2</ele>
        <time>2020-08-14T11:36:07Z</time>
      </trkpt>
      <trkpt lat="48.73282" lon="7.28668">
        <ele>219.7</ele>
        <time>2020-08-14T11:36:11Z</time>
      </trkpt>
      <trkpt lat="48.73286" lon="7.2867">
        <ele>219.4</ele>
        <time>2020-08-14T11:36:16Z</time>
      </trkpt>
      <trkpt lat="48.73292" lon="7.28671">
        <ele>221.8</ele>
        <time>2020-08-14T11:36:32Z</time>
      </trkpt>
      <trkpt lat="48.73292" lon="7.28678">
        <ele>221.8</ele>
        <time>2020-08-14T11:36:37Z</time>
      </trkpt>
      <trkpt lat="48.73292" lon="7.28685">
        <ele>221.1</ele>
        <time>2020-08-14T11:36:41Z</time>
      </trkpt>
      <trkpt lat="48.73297" lon="7.28685">
        <ele>223.4</ele>
        <time>2020-08-14T11:36:50Z</time>
      </trkpt>
      <trkpt lat="48.73302" lon="7.28687">
        <ele>224.8</ele>
        <time>2020-08-14T11:36:53Z</time>
      </trkpt>
      <trkpt lat="48.73307" lon="7.28689">
        <ele>226.5</ele>
        <time>2020-08-14T11:36:56Z</time>
      </trkpt>
      <trkpt lat="48.73314" lon="7.28693">
        <ele>227.4</ele>
        <time>2020-08-14T11:36:59Z</time>
      </trkpt>
      <trkpt lat="48.73324" lon="7.28696">
        <ele>227.9</ele>
        <time>2020-08-14T11:37:01Z</time>
      </trkpt>
      <trkpt lat="48.73332" lon="7.28695">
        <ele>225.9</ele>
        <time>2020-08-14T11:37:03Z</time>
      </trkpt>
      <trkpt lat="48.73342" lon="7.28698">
        <ele>226.6</ele>
        <time>2020-08-14T11:37:05Z</time>
      </trkpt>
      <trkpt lat="48.73351" lon="7.28703">
        <ele>226.6</ele>
        <time>2020-08-14T11:37:07Z</time>
      </trkpt>
      <trkpt lat="48.73361" lon="7.28706">
        <ele>226</ele>
        <time>2020-08-14T11:37:09Z</time>
      </trkpt>
      <trkpt lat="48.73367" lon="7.28712">
        <ele>224.7</ele>
        <time>2020-08-14T11:37:11Z</time>
      </trkpt>
      <trkpt lat="48.73373" lon="7.28721">
        <ele>225.1</ele>
        <time>2020-08-14T11:37:13Z</time>
      </trkpt>
      <trkpt lat="48.73375" lon="7.28734">
        <ele>224.9</ele>
        <time>2020-08-14T11:37:15Z</time>
      </trkpt>
      <trkpt lat="48.73372" lon="7.28745">
        <ele>225</ele>
        <time>2020-08-14T11:37:17Z</time>
      </trkpt>
      <trkpt lat="48.73367" lon="7.28752">
        <ele>224.8</ele>
        <time>2020-08-14T11:37:19Z</time>
      </trkpt>
      <trkpt lat="48.7336" lon="7.28756">
        <ele>225.4</ele>
        <time>2020-08-14T11:37:21Z</time>
      </trkpt>
      <trkpt lat="48.73353" lon="7.28758">
        <ele>225.1</ele>
        <time>2020-08-14T11:37:23Z</time>
      </trkpt>
      <trkpt lat="48.73345" lon="7.28756">
        <ele>225.9</ele>
        <time>2020-08-14T11:37:25Z</time>
      </trkpt>
      <trkpt lat="48.73337" lon="7.28756">
        <ele>226</ele>
        <time>2020-08-14T11:37:27Z</time>
      </trkpt>
      <trkpt lat="48.73327" lon="7.28757">
        <ele>226.4</ele>
        <time>2020-08-14T11:37:29Z</time>
      </trkpt>
      <trkpt lat="48.73313" lon="7.28755">
        <ele>227.4</ele>
        <time>2020-08-14T11:37:32Z</time>
      </trkpt>
      <trkpt lat="48.73303" lon="7.28752">
        <ele>227.6</ele>
        <time>2020-08-14T11:37:34Z</time>
      </trkpt>
      <trkpt lat="48.73295" lon="7.28754">
        <ele>227.5</ele>
        <time>2020-08-14T11:37:36Z</time>
      </trkpt>
      <trkpt lat="48.73285" lon="7.28753">
        <ele>227.4</ele>
        <time>2020-08-14T11:37:38Z</time>
      </trkpt>
      <trkpt lat="48.73276" lon="7.28753">
        <ele>228.2</ele>
        <time>2020-08-14T11:37:40Z</time>
      </trkpt>
      <trkpt lat="48.73265" lon="7.28754">
        <ele>227.9</ele>
        <time>2020-08-14T11:37:42Z</time>
      </trkpt>
      <trkpt lat="48.7325" lon="7.28752">
        <ele>229.3</ele>
        <time>2020-08-14T11:37:45Z</time>
      </trkpt>
      <trkpt lat="48.73241" lon="7.28747">
        <ele>230</ele>
        <time>2020-08-14T11:37:47Z</time>
      </trkpt>
      <trkpt lat="48.73231" lon="7.28747">
        <ele>230.3</ele>
        <time>2020-08-14T11:37:49Z</time>
      </trkpt>
      <trkpt lat="48.73222" lon="7.28746">
        <ele>231.6</ele>
        <time>2020-08-14T11:37:51Z</time>
      </trkpt>
      <trkpt lat="48.73213" lon="7.28749">
        <ele>230.6</ele>
        <time>2020-08-14T11:37:53Z</time>
      </trkpt>
      <trkpt lat="48.73204" lon="7.28756">
        <ele>229.6</ele>
        <time>2020-08-14T11:37:55Z</time>
      </trkpt>
      <trkpt lat="48.73197" lon="7.2877">
        <ele>229.7</ele>
        <time>2020-08-14T11:37:57Z</time>
      </trkpt>
      <trkpt lat="48.73189" lon="7.28792">
        <ele>229</ele>
        <time>2020-08-14T11:38:00Z</time>
      </trkpt>
      <trkpt lat="48.73183" lon="7.28808">
        <ele>227.7</ele>
        <time>2020-08-14T11:38:02Z</time>
      </trkpt>
      <trkpt lat="48.7318" lon="7.28824">
        <ele>226.9</ele>
        <time>2020-08-14T11:38:04Z</time>
      </trkpt>
      <trkpt lat="48.73174" lon="7.28839">
        <ele>225.5</ele>
        <time>2020-08-14T11:38:06Z</time>
      </trkpt>
      <trkpt lat="48.73168" lon="7.28856">
        <ele>224.1</ele>
        <time>2020-08-14T11:38:08Z</time>
      </trkpt>
      <trkpt lat="48.73166" lon="7.28875">
        <ele>221.8</ele>
        <time>2020-08-14T11:38:10Z</time>
      </trkpt>
      <trkpt lat="48.73162" lon="7.28895">
        <ele>219.9</ele>
        <time>2020-08-14T11:38:12Z</time>
      </trkpt>
      <trkpt lat="48.73158" lon="7.28913">
        <ele>217</ele>
        <time>2020-08-14T11:38:14Z</time>
      </trkpt>
      <trkpt lat="48.73154" lon="7.28931">
        <ele>215.7</ele>
        <time>2020-08-14T11:38:16Z</time>
      </trkpt>
      <trkpt lat="48.73152" lon="7.2895">
        <ele>215.3</ele>
        <time>2020-08-14T11:38:18Z</time>
      </trkpt>
      <trkpt lat="48.73149" lon="7.28968">
        <ele>217.9</ele>
        <time>2020-08-14T11:38:20Z</time>
      </trkpt>
      <trkpt lat="48.73146" lon="7.28987">
        <ele>217.3</ele>
        <time>2020-08-14T11:38:22Z</time>
      </trkpt>
      <trkpt lat="48.73143" lon="7.29002">
        <ele>218</ele>
        <time>2020-08-14T11:38:24Z</time>
      </trkpt>
      <trkpt lat="48.73139" lon="7.2902">
        <ele>218.1</ele>
        <time>2020-08-14T11:38:26Z</time>
      </trkpt>
      <trkpt lat="48.73136" lon="7.29038">
        <ele>218.5</ele>
        <time>2020-08-14T11:38:28Z</time>
      </trkpt>
      <trkpt lat="48.73132" lon="7.29055">
        <ele>218.5</ele>
        <time>2020-08-14T11:38:30Z</time>
      </trkpt>
      <trkpt lat="48.73126" lon="7.29072">
        <ele>218.3</ele>
        <time>2020-08-14T11:38:32Z</time>
      </trkpt>
      <trkpt lat="48.73122" lon="7.2909">
        <ele>218.4</ele>
        <time>2020-08-14T11:38:34Z</time>
      </trkpt>
      <trkpt lat="48.73118" lon="7.29108">
        <ele>218.5</ele>
        <time>2020-08-14T11:38:36Z</time>
      </trkpt>
      <trkpt lat="48.73114" lon="7.29127">
        <ele>219</ele>
        <time>2020-08-14T11:38:38Z</time>
      </trkpt>
      <trkpt lat="48.7311" lon="7.29146">
        <ele>219.8</ele>
        <time>2020-08-14T11:38:40Z</time>
      </trkpt>
      <trkpt lat="48.73106" lon="7.29164">
        <ele>220.8</ele>
        <time>2020-08-14T11:38:42Z</time>
      </trkpt>
      <trkpt lat="48.73101" lon="7.2918">
        <ele>221.1</ele>
        <time>2020-08-14T11:38:44Z</time>
      </trkpt>
      <trkpt lat="48.73096" lon="7.29198">
        <ele>220.9</ele>
        <time>2020-08-14T11:38:46Z</time>
      </trkpt>
      <trkpt lat="48.73091" lon="7.29216">
        <ele>221.3</ele>
        <time>2020-08-14T11:38:48Z</time>
      </trkpt>
      <trkpt lat="48.73089" lon="7.29226">
        <ele>220.8</ele>
        <time>2020-08-14T11:38:50Z</time>
      </trkpt>
      <trkpt lat="48.73087" lon="7.29233">
        <ele>220.7</ele>
        <time>2020-08-14T11:38:52Z</time>
      </trkpt>
      <trkpt lat="48.73084" lon="7.29245">
        <ele>220.1</ele>
        <time>2020-08-14T11:38:55Z</time>
      </trkpt>
      <trkpt lat="48.73083" lon="7.29255">
        <ele>219.4</ele>
        <time>2020-08-14T11:38:57Z</time>
      </trkpt>
      <trkpt lat="48.73081" lon="7.29268">
        <ele>219.2</ele>
        <time>2020-08-14T11:39:00Z</time>
      </trkpt>
      <trkpt lat="48.73079" lon="7.29277">
        <ele>219.4</ele>
        <time>2020-08-14T11:39:02Z</time>
      </trkpt>
      <trkpt lat="48.73075" lon="7.29291">
        <ele>219.4</ele>
        <time>2020-08-14T11:39:04Z</time>
      </trkpt>
      <trkpt lat="48.7307" lon="7.29305">
        <ele>219.4</ele>
        <time>2020-08-14T11:39:06Z</time>
      </trkpt>
      <trkpt lat="48.73065" lon="7.29321">
        <ele>218.9</ele>
        <time>2020-08-14T11:39:08Z</time>
      </trkpt>
      <trkpt lat="48.7306" lon="7.29334">
        <ele>218.2</ele>
        <time>2020-08-14T11:39:10Z</time>
      </trkpt>
      <trkpt lat="48.73055" lon="7.29348">
        <ele>218</ele>
        <time>2020-08-14T11:39:12Z</time>
      </trkpt>
      <trkpt lat="48.7305" lon="7.29362">
        <ele>217.8</ele>
        <time>2020-08-14T11:39:14Z</time>
      </trkpt>
      <trkpt lat="48.73047" lon="7.29376">
        <ele>217.2</ele>
        <time>2020-08-14T11:39:16Z</time>
      </trkpt>
      <trkpt lat="48.73046" lon="7.29393">
        <ele>217</ele>
        <time>2020-08-14T11:39:18Z</time>
      </trkpt>
      <trkpt lat="48.73041" lon="7.29407">
        <ele>217.8</ele>
        <time>2020-08-14T11:39:20Z</time>
      </trkpt>
      <trkpt lat="48.73035" lon="7.29422">
        <ele>217.6</ele>
        <time>2020-08-14T11:39:22Z</time>
      </trkpt>
      <trkpt lat="48.7303" lon="7.29439">
        <ele>216.4</ele>
        <time>2020-08-14T11:39:24Z</time>
      </trkpt>
      <trkpt lat="48.73027" lon="7.29451">
        <ele>216.7</ele>
        <time>2020-08-14T11:39:26Z</time>
      </trkpt>
      <trkpt lat="48.73024" lon="7.29463">
        <ele>216.2</ele>
        <time>2020-08-14T11:39:28Z</time>
      </trkpt>
      <trkpt lat="48.73021" lon="7.29479">
        <ele>215.5</ele>
        <time>2020-08-14T11:39:30Z</time>
      </trkpt>
      <trkpt lat="48.7302" lon="7.29491">
        <ele>214.4</ele>
        <time>2020-08-14T11:39:32Z</time>
      </trkpt>
      <trkpt lat="48.73017" lon="7.29503">
        <ele>213.4</ele>
        <time>2020-08-14T11:39:34Z</time>
      </trkpt>
      <trkpt lat="48.73013" lon="7.29518">
        <ele>212.6</ele>
        <time>2020-08-14T11:39:36Z</time>
      </trkpt>
      <trkpt lat="48.73007" lon="7.29534">
        <ele>212.6</ele>
        <time>2020-08-14T11:39:38Z</time>
      </trkpt>
      <trkpt lat="48.73002" lon="7.29552">
        <ele>212.3</ele>
        <time>2020-08-14T11:39:40Z</time>
      </trkpt>
      <trkpt lat="48.72996" lon="7.29568">
        <ele>213.7</ele>
        <time>2020-08-14T11:39:42Z</time>
      </trkpt>
      <trkpt lat="48.72991" lon="7.29587">
        <ele>213.9</ele>
        <time>2020-08-14T11:39:44Z</time>
      </trkpt>
      <trkpt lat="48.72986" lon="7.29605">
        <ele>213.5</ele>
        <time>2020-08-14T11:39:46Z</time>
      </trkpt>
      <trkpt lat="48.72981" lon="7.29624">
        <ele>214.3</ele>
        <time>2020-08-14T11:39:48Z</time>
      </trkpt>
      <trkpt lat="48.72975" lon="7.29654">
        <ele>212.7</ele>
        <time>2020-08-14T11:39:51Z</time>
      </trkpt>
      <trkpt lat="48.72972" lon="7.29675">
        <ele>211.7</ele>
        <time>2020-08-14T11:39:53Z</time>
      </trkpt>
      <trkpt lat="48.72967" lon="7.29696">
        <ele>211.5</ele>
        <time>2020-08-14T11:39:55Z</time>
      </trkpt>
      <trkpt lat="48.72961" lon="7.29719">
        <ele>210.4</ele>
        <time>2020-08-14T11:39:57Z</time>
      </trkpt>
      <trkpt lat="48.72954" lon="7.29739">
        <ele>209.7</ele>
        <time>2020-08-14T11:39:59Z</time>
      </trkpt>
      <trkpt lat="48.72948" lon="7.29761">
        <ele>209.2</ele>
        <time>2020-08-14T11:40:01Z</time>
      </trkpt>
      <trkpt lat="48.72942" lon="7.29784">
        <ele>209.5</ele>
        <time>2020-08-14T11:40:03Z</time>
      </trkpt>
      <trkpt lat="48.72937" lon="7.29807">
        <ele>210</ele>
        <time>2020-08-14T11:40:05Z</time>
      </trkpt>
      <trkpt lat="48.72931" lon="7.29829">
        <ele>210.8</ele>
        <time>2020-08-14T11:40:07Z</time>
      </trkpt>
      <trkpt lat="48.72924" lon="7.29849">
        <ele>211.9</ele>
        <time>2020-08-14T11:40:09Z</time>
      </trkpt>
      <trkpt lat="48.72915" lon="7.29869">
        <ele>213.2</ele>
        <time>2020-08-14T11:40:11Z</time>
      </trkpt>
      <trkpt lat="48.72904" lon="7.29886">
        <ele>214.5</ele>
        <time>2020-08-14T11:40:13Z</time>
      </trkpt>
      <trkpt lat="48.72893" lon="7.29903">
        <ele>215.7</ele>
        <time>2020-08-14T11:40:15Z</time>
      </trkpt>
      <trkpt lat="48.72883" lon="7.29921">
        <ele>217.1</ele>
        <time>2020-08-14T11:40:17Z</time>
      </trkpt>
      <trkpt lat="48.72873" lon="7.29936">
        <ele>218.5</ele>
        <time>2020-08-14T11:40:19Z</time>
      </trkpt>
      <trkpt lat="48.72863" lon="7.29947">
        <ele>220.1</ele>
        <time>2020-08-14T11:40:21Z</time>
      </trkpt>
      <trkpt lat="48.72855" lon="7.29957">
        <ele>221.1</ele>
        <time>2020-08-14T11:40:23Z</time>
      </trkpt>
      <trkpt lat="48.72847" lon="7.29966">
        <ele>222.1</ele>
        <time>2020-08-14T11:40:25Z</time>
      </trkpt>
      <trkpt lat="48.7284" lon="7.29975">
        <ele>222.4</ele>
        <time>2020-08-14T11:40:27Z</time>
      </trkpt>
      <trkpt lat="48.72833" lon="7.29981">
        <ele>222.6</ele>
        <time>2020-08-14T11:40:29Z</time>
      </trkpt>
      <trkpt lat="48.72823" lon="7.29983">
        <ele>222.5</ele>
        <time>2020-08-14T11:40:31Z</time>
      </trkpt>
      <trkpt lat="48.72812" lon="7.29983">
        <ele>222.7</ele>
        <time>2020-08-14T11:40:33Z</time>
      </trkpt>
      <trkpt lat="48.72802" lon="7.29983">
        <ele>222.7</ele>
        <time>2020-08-14T11:40:35Z</time>
      </trkpt>
      <trkpt lat="48.72793" lon="7.29985">
        <ele>223.5</ele>
        <time>2020-08-14T11:40:37Z</time>
      </trkpt>
      <trkpt lat="48.72785" lon="7.29987">
        <ele>223.7</ele>
        <time>2020-08-14T11:40:39Z</time>
      </trkpt>
      <trkpt lat="48.72777" lon="7.2999">
        <ele>223.7</ele>
        <time>2020-08-14T11:40:41Z</time>
      </trkpt>
      <trkpt lat="48.72771" lon="7.29998">
        <ele>224</ele>
        <time>2020-08-14T11:40:43Z</time>
      </trkpt>
      <trkpt lat="48.72768" lon="7.30011">
        <ele>223.3</ele>
        <time>2020-08-14T11:40:45Z</time>
      </trkpt>
      <trkpt lat="48.72766" lon="7.30033">
        <ele>223.4</ele>
        <time>2020-08-14T11:40:48Z</time>
      </trkpt>
      <trkpt lat="48.72769" lon="7.30045">
        <ele>224.5</ele>
        <time>2020-08-14T11:40:50Z</time>
      </trkpt>
      <trkpt lat="48.72771" lon="7.30054">
        <ele>224.6</ele>
        <time>2020-08-14T11:40:52Z</time>
      </trkpt>
      <trkpt lat="48.72772" lon="7.30064">
        <ele>223.8</ele>
        <time>2020-08-14T11:40:54Z</time>
      </trkpt>
      <trkpt lat="48.72774" lon="7.30073">
        <ele>223.5</ele>
        <time>2020-08-14T11:40:56Z</time>
      </trkpt>
      <trkpt lat="48.72777" lon="7.30083">
        <ele>223.7</ele>
        <time>2020-08-14T11:40:58Z</time>
      </trkpt>
      <trkpt lat="48.72779" lon="7.30094">
        <ele>224.1</ele>
        <time>2020-08-14T11:41:00Z</time>
      </trkpt>
      <trkpt lat="48.72786" lon="7.30118">
        <ele>224.6</ele>
        <time>2020-08-14T11:41:03Z</time>
      </trkpt>
      <trkpt lat="48.72792" lon="7.30131">
        <ele>224.6</ele>
        <time>2020-08-14T11:41:05Z</time>
      </trkpt>
      <trkpt lat="48.72798" lon="7.30145">
        <ele>225.5</ele>
        <time>2020-08-14T11:41:08Z</time>
      </trkpt>
      <trkpt lat="48.72802" lon="7.30157">
        <ele>226.5</ele>
        <time>2020-08-14T11:41:10Z</time>
      </trkpt>
      <trkpt lat="48.72807" lon="7.30169">
        <ele>227.4</ele>
        <time>2020-08-14T11:41:12Z</time>
      </trkpt>
      <trkpt lat="48.72812" lon="7.30179">
        <ele>226.6</ele>
        <time>2020-08-14T11:41:14Z</time>
      </trkpt>
      <trkpt lat="48.72818" lon="7.30191">
        <ele>227.6</ele>
        <time>2020-08-14T11:41:16Z</time>
      </trkpt>
      <trkpt lat="48.72829" lon="7.30207">
        <ele>231.2</ele>
        <time>2020-08-14T11:41:19Z</time>
      </trkpt>
      <trkpt lat="48.72836" lon="7.30218">
        <ele>233.7</ele>
        <time>2020-08-14T11:41:21Z</time>
      </trkpt>
      <trkpt lat="48.72842" lon="7.30227">
        <ele>235.9</ele>
        <time>2020-08-14T11:41:23Z</time>
      </trkpt>
      <trkpt lat="48.72848" lon="7.30237">
        <ele>237.9</ele>
        <time>2020-08-14T11:41:25Z</time>
      </trkpt>
      <trkpt lat="48.72856" lon="7.30253">
        <ele>240.2</ele>
        <time>2020-08-14T11:41:28Z</time>
      </trkpt>
      <trkpt lat="48.72862" lon="7.30262">
        <ele>242.1</ele>
        <time>2020-08-14T11:41:30Z</time>
      </trkpt>
      <trkpt lat="48.72869" lon="7.30277">
        <ele>244.1</ele>
        <time>2020-08-14T11:41:33Z</time>
      </trkpt>
      <trkpt lat="48.72874" lon="7.30285">
        <ele>245.2</ele>
        <time>2020-08-14T11:41:35Z</time>
      </trkpt>
      <trkpt lat="48.7288" lon="7.30293">
        <ele>246.6</ele>
        <time>2020-08-14T11:41:37Z</time>
      </trkpt>
      <trkpt lat="48.72884" lon="7.303">
        <ele>248</ele>
        <time>2020-08-14T11:41:39Z</time>
      </trkpt>
      <trkpt lat="48.72888" lon="7.30306">
        <ele>248.9</ele>
        <time>2020-08-14T11:41:41Z</time>
      </trkpt>
      <trkpt lat="48.7289" lon="7.30313">
        <ele>250</ele>
        <time>2020-08-14T11:41:43Z</time>
      </trkpt>
      <trkpt lat="48.72893" lon="7.30321">
        <ele>251.1</ele>
        <time>2020-08-14T11:41:45Z</time>
      </trkpt>
      <trkpt lat="48.72893" lon="7.30328">
        <ele>251.6</ele>
        <time>2020-08-14T11:41:47Z</time>
      </trkpt>
      <trkpt lat="48.72894" lon="7.30336">
        <ele>251.9</ele>
        <time>2020-08-14T11:41:49Z</time>
      </trkpt>
      <trkpt lat="48.72894" lon="7.30345">
        <ele>252.3</ele>
        <time>2020-08-14T11:41:51Z</time>
      </trkpt>
      <trkpt lat="48.72893" lon="7.30362">
        <ele>254.5</ele>
        <time>2020-08-14T11:41:54Z</time>
      </trkpt>
      <trkpt lat="48.72887" lon="7.30376">
        <ele>256.8</ele>
        <time>2020-08-14T11:41:56Z</time>
      </trkpt>
      <trkpt lat="48.72877" lon="7.30375">
        <ele>259.8</ele>
        <time>2020-08-14T11:41:59Z</time>
      </trkpt>
      <trkpt lat="48.72869" lon="7.3037">
        <ele>261.2</ele>
        <time>2020-08-14T11:42:01Z</time>
      </trkpt>
      <trkpt lat="48.72861" lon="7.30362">
        <ele>262.1</ele>
        <time>2020-08-14T11:42:03Z</time>
      </trkpt>
      <trkpt lat="48.72848" lon="7.30346">
        <ele>262.9</ele>
        <time>2020-08-14T11:42:06Z</time>
      </trkpt>
      <trkpt lat="48.72836" lon="7.30329">
        <ele>262.7</ele>
        <time>2020-08-14T11:42:09Z</time>
      </trkpt>
      <trkpt lat="48.72827" lon="7.30317">
        <ele>261.6</ele>
        <time>2020-08-14T11:42:11Z</time>
      </trkpt>
      <trkpt lat="48.72818" lon="7.30305">
        <ele>260.8</ele>
        <time>2020-08-14T11:42:13Z</time>
      </trkpt>
      <trkpt lat="48.72807" lon="7.30286">
        <ele>259.5</ele>
        <time>2020-08-14T11:42:16Z</time>
      </trkpt>
      <trkpt lat="48.72794" lon="7.30261">
        <ele>258.3</ele>
        <time>2020-08-14T11:42:19Z</time>
      </trkpt>
      <trkpt lat="48.72787" lon="7.30242">
        <ele>257.2</ele>
        <time>2020-08-14T11:42:21Z</time>
      </trkpt>
      <trkpt lat="48.72775" lon="7.30213">
        <ele>255.6</ele>
        <time>2020-08-14T11:42:24Z</time>
      </trkpt>
      <trkpt lat="48.72767" lon="7.30192">
        <ele>254.3</ele>
        <time>2020-08-14T11:42:26Z</time>
      </trkpt>
      <trkpt lat="48.7276" lon="7.30173">
        <ele>252.7</ele>
        <time>2020-08-14T11:42:28Z</time>
      </trkpt>
      <trkpt lat="48.72752" lon="7.30152">
        <ele>252.2</ele>
        <time>2020-08-14T11:42:30Z</time>
      </trkpt>
      <trkpt lat="48.72741" lon="7.30123">
        <ele>250.7</ele>
        <time>2020-08-14T11:42:33Z</time>
      </trkpt>
      <trkpt lat="48.72734" lon="7.30102">
        <ele>249.4</ele>
        <time>2020-08-14T11:42:35Z</time>
      </trkpt>
      <trkpt lat="48.72721" lon="7.30079">
        <ele>247.5</ele>
        <time>2020-08-14T11:42:38Z</time>
      </trkpt>
      <trkpt lat="48.72711" lon="7.30072">
        <ele>245.9</ele>
        <time>2020-08-14T11:42:40Z</time>
      </trkpt>
      <trkpt lat="48.727" lon="7.30073">
        <ele>244.5</ele>
        <time>2020-08-14T11:42:42Z</time>
      </trkpt>
      <trkpt lat="48.72689" lon="7.30082">
        <ele>244.4</ele>
        <time>2020-08-14T11:42:44Z</time>
      </trkpt>
      <trkpt lat="48.72676" lon="7.30093">
        <ele>243.2</ele>
        <time>2020-08-14T11:42:46Z</time>
      </trkpt>
      <trkpt lat="48.72663" lon="7.30108">
        <ele>242.6</ele>
        <time>2020-08-14T11:42:48Z</time>
      </trkpt>
      <trkpt lat="48.72651" lon="7.30124">
        <ele>241.7</ele>
        <time>2020-08-14T11:42:50Z</time>
      </trkpt>
      <trkpt lat="48.72638" lon="7.3014">
        <ele>241.2</ele>
        <time>2020-08-14T11:42:52Z</time>
      </trkpt>
      <trkpt lat="48.72624" lon="7.30159">
        <ele>241.4</ele>
        <time>2020-08-14T11:42:54Z</time>
      </trkpt>
      <trkpt lat="48.72614" lon="7.30179">
        <ele>241.8</ele>
        <time>2020-08-14T11:42:56Z</time>
      </trkpt>
      <trkpt lat="48.72603" lon="7.302">
        <ele>241.8</ele>
        <time>2020-08-14T11:42:58Z</time>
      </trkpt>
      <trkpt lat="48.72595" lon="7.30222">
        <ele>238.8</ele>
        <time>2020-08-14T11:43:00Z</time>
      </trkpt>
      <trkpt lat="48.7259" lon="7.30244">
        <ele>239.2</ele>
        <time>2020-08-14T11:43:03Z</time>
      </trkpt>
      <trkpt lat="48.72579" lon="7.30276">
        <ele>239.1</ele>
        <time>2020-08-14T11:43:06Z</time>
      </trkpt>
      <trkpt lat="48.7257" lon="7.30295">
        <ele>239</ele>
        <time>2020-08-14T11:43:08Z</time>
      </trkpt>
      <trkpt lat="48.72561" lon="7.30314">
        <ele>239.4</ele>
        <time>2020-08-14T11:43:10Z</time>
      </trkpt>
      <trkpt lat="48.72552" lon="7.30332">
        <ele>240.1</ele>
        <time>2020-08-14T11:43:12Z</time>
      </trkpt>
      <trkpt lat="48.72542" lon="7.30351">
        <ele>240.7</ele>
        <time>2020-08-14T11:43:14Z</time>
      </trkpt>
      <trkpt lat="48.72531" lon="7.3037">
        <ele>241.2</ele>
        <time>2020-08-14T11:43:16Z</time>
      </trkpt>
      <trkpt lat="48.72516" lon="7.30399">
        <ele>241.7</ele>
        <time>2020-08-14T11:43:19Z</time>
      </trkpt>
      <trkpt lat="48.72498" lon="7.30427">
        <ele>241.7</ele>
        <time>2020-08-14T11:43:21Z</time>
      </trkpt>
      <trkpt lat="48.72488" lon="7.30447">
        <ele>241.6</ele>
        <time>2020-08-14T11:43:24Z</time>
      </trkpt>
      <trkpt lat="48.72476" lon="7.30465">
        <ele>240.8</ele>
        <time>2020-08-14T11:43:25Z</time>
      </trkpt>
      <trkpt lat="48.72466" lon="7.30483">
        <ele>239.6</ele>
        <time>2020-08-14T11:43:27Z</time>
      </trkpt>
      <trkpt lat="48.72455" lon="7.30503">
        <ele>238</ele>
        <time>2020-08-14T11:43:29Z</time>
      </trkpt>
      <trkpt lat="48.72442" lon="7.3052">
        <ele>236.3</ele>
        <time>2020-08-14T11:43:31Z</time>
      </trkpt>
      <trkpt lat="48.72428" lon="7.30535">
        <ele>235</ele>
        <time>2020-08-14T11:43:33Z</time>
      </trkpt>
      <trkpt lat="48.72415" lon="7.3055">
        <ele>232.6</ele>
        <time>2020-08-14T11:43:35Z</time>
      </trkpt>
      <trkpt lat="48.724" lon="7.30562">
        <ele>230.2</ele>
        <time>2020-08-14T11:43:37Z</time>
      </trkpt>
      <trkpt lat="48.72386" lon="7.30572">
        <ele>227.8</ele>
        <time>2020-08-14T11:43:40Z</time>
      </trkpt>
      <trkpt lat="48.72375" lon="7.30581">
        <ele>225.8</ele>
        <time>2020-08-14T11:43:42Z</time>
      </trkpt>
      <trkpt lat="48.7236" lon="7.306">
        <ele>223.2</ele>
        <time>2020-08-14T11:43:45Z</time>
      </trkpt>
      <trkpt lat="48.72351" lon="7.30617">
        <ele>221.9</ele>
        <time>2020-08-14T11:43:46Z</time>
      </trkpt>
      <trkpt lat="48.72342" lon="7.30632">
        <ele>221.3</ele>
        <time>2020-08-14T11:43:48Z</time>
      </trkpt>
      <trkpt lat="48.72332" lon="7.30644">
        <ele>220.5</ele>
        <time>2020-08-14T11:43:50Z</time>
      </trkpt>
      <trkpt lat="48.7232" lon="7.3065">
        <ele>220.7</ele>
        <time>2020-08-14T11:43:52Z</time>
      </trkpt>
      <trkpt lat="48.72307" lon="7.30652">
        <ele>220.9</ele>
        <time>2020-08-14T11:43:54Z</time>
      </trkpt>
      <trkpt lat="48.72295" lon="7.30654">
        <ele>221.5</ele>
        <time>2020-08-14T11:43:56Z</time>
      </trkpt>
      <trkpt lat="48.72284" lon="7.30654">
        <ele>222</ele>
        <time>2020-08-14T11:43:58Z</time>
      </trkpt>
      <trkpt lat="48.72273" lon="7.30653">
        <ele>222.8</ele>
        <time>2020-08-14T11:44:01Z</time>
      </trkpt>
      <trkpt lat="48.72257" lon="7.30653">
        <ele>223.6</ele>
        <time>2020-08-14T11:44:04Z</time>
      </trkpt>
      <trkpt lat="48.72246" lon="7.30657">
        <ele>223.7</ele>
        <time>2020-08-14T11:44:06Z</time>
      </trkpt>
      <trkpt lat="48.72235" lon="7.30659">
        <ele>224</ele>
        <time>2020-08-14T11:44:08Z</time>
      </trkpt>
      <trkpt lat="48.72218" lon="7.30667">
        <ele>224</ele>
        <time>2020-08-14T11:44:11Z</time>
      </trkpt>
      <trkpt lat="48.72202" lon="7.30679">
        <ele>224.1</ele>
        <time>2020-08-14T11:44:14Z</time>
      </trkpt>
      <trkpt lat="48.7219" lon="7.30689">
        <ele>224.4</ele>
        <time>2020-08-14T11:44:15Z</time>
      </trkpt>
      <trkpt lat="48.72181" lon="7.30701">
        <ele>224.6</ele>
        <time>2020-08-14T11:44:17Z</time>
      </trkpt>
      <trkpt lat="48.72171" lon="7.30716">
        <ele>224.8</ele>
        <time>2020-08-14T11:44:19Z</time>
      </trkpt>
      <trkpt lat="48.72161" lon="7.30728">
        <ele>224.2</ele>
        <time>2020-08-14T11:44:22Z</time>
      </trkpt>
      <trkpt lat="48.72152" lon="7.30742">
        <ele>222.9</ele>
        <time>2020-08-14T11:44:24Z</time>
      </trkpt>
      <trkpt lat="48.72143" lon="7.3077">
        <ele>220.6</ele>
        <time>2020-08-14T11:44:27Z</time>
      </trkpt>
      <trkpt lat="48.7214" lon="7.30791">
        <ele>219.9</ele>
        <time>2020-08-14T11:44:29Z</time>
      </trkpt>
      <trkpt lat="48.72138" lon="7.30813">
        <ele>219.6</ele>
        <time>2020-08-14T11:44:31Z</time>
      </trkpt>
      <trkpt lat="48.72135" lon="7.30845">
        <ele>219.8</ele>
        <time>2020-08-14T11:44:33Z</time>
      </trkpt>
      <trkpt lat="48.72136" lon="7.30868">
        <ele>220.4</ele>
        <time>2020-08-14T11:44:36Z</time>
      </trkpt>
      <trkpt lat="48.72135" lon="7.30902">
        <ele>221.2</ele>
        <time>2020-08-14T11:44:39Z</time>
      </trkpt>
      <trkpt lat="48.72134" lon="7.30935">
        <ele>221.8</ele>
        <time>2020-08-14T11:44:42Z</time>
      </trkpt>
      <trkpt lat="48.72132" lon="7.30959">
        <ele>222.7</ele>
        <time>2020-08-14T11:44:44Z</time>
      </trkpt>
      <trkpt lat="48.7213" lon="7.30983">
        <ele>223.9</ele>
        <time>2020-08-14T11:44:46Z</time>
      </trkpt>
      <trkpt lat="48.72127" lon="7.31017">
        <ele>223.9</ele>
        <time>2020-08-14T11:44:49Z</time>
      </trkpt>
      <trkpt lat="48.72124" lon="7.31041">
        <ele>222.7</ele>
        <time>2020-08-14T11:44:50Z</time>
      </trkpt>
      <trkpt lat="48.72121" lon="7.31067">
        <ele>221.3</ele>
        <time>2020-08-14T11:44:52Z</time>
      </trkpt>
      <trkpt lat="48.72117" lon="7.31091">
        <ele>220.1</ele>
        <time>2020-08-14T11:44:55Z</time>
      </trkpt>
      <trkpt lat="48.72112" lon="7.31115">
        <ele>219</ele>
        <time>2020-08-14T11:44:57Z</time>
      </trkpt>
      <trkpt lat="48.72107" lon="7.3115">
        <ele>216.8</ele>
        <time>2020-08-14T11:44:59Z</time>
      </trkpt>
      <trkpt lat="48.72103" lon="7.31172">
        <ele>216.3</ele>
        <time>2020-08-14T11:45:01Z</time>
      </trkpt>
      <trkpt lat="48.72103" lon="7.31195">
        <ele>215.1</ele>
        <time>2020-08-14T11:45:03Z</time>
      </trkpt>
      <trkpt lat="48.72105" lon="7.31218">
        <ele>214.6</ele>
        <time>2020-08-14T11:45:05Z</time>
      </trkpt>
      <trkpt lat="48.72108" lon="7.31239">
        <ele>214.5</ele>
        <time>2020-08-14T11:45:07Z</time>
      </trkpt>
      <trkpt lat="48.7211" lon="7.31261">
        <ele>214.2</ele>
        <time>2020-08-14T11:45:09Z</time>
      </trkpt>
      <trkpt lat="48.7211" lon="7.31283">
        <ele>214.1</ele>
        <time>2020-08-14T11:45:11Z</time>
      </trkpt>
      <trkpt lat="48.72114" lon="7.31306">
        <ele>213.9</ele>
        <time>2020-08-14T11:45:14Z</time>
      </trkpt>
      <trkpt lat="48.72122" lon="7.31337">
        <ele>213.4</ele>
        <time>2020-08-14T11:45:16Z</time>
      </trkpt>
      <trkpt lat="48.72129" lon="7.31358">
        <ele>213.4</ele>
        <time>2020-08-14T11:45:19Z</time>
      </trkpt>
      <trkpt lat="48.7214" lon="7.31386">
        <ele>213.4</ele>
        <time>2020-08-14T11:45:21Z</time>
      </trkpt>
      <trkpt lat="48.72148" lon="7.31405">
        <ele>213.7</ele>
        <time>2020-08-14T11:45:24Z</time>
      </trkpt>
      <trkpt lat="48.72155" lon="7.31424">
        <ele>213.6</ele>
        <time>2020-08-14T11:45:26Z</time>
      </trkpt>
      <trkpt lat="48.72167" lon="7.31452">
        <ele>214.4</ele>
        <time>2020-08-14T11:45:29Z</time>
      </trkpt>
      <trkpt lat="48.72173" lon="7.31473">
        <ele>215.1</ele>
        <time>2020-08-14T11:45:31Z</time>
      </trkpt>
      <trkpt lat="48.72179" lon="7.31495">
        <ele>215.8</ele>
        <time>2020-08-14T11:45:33Z</time>
      </trkpt>
      <trkpt lat="48.72186" lon="7.31528">
        <ele>215.7</ele>
        <time>2020-08-14T11:45:36Z</time>
      </trkpt>
      <trkpt lat="48.72191" lon="7.31552">
        <ele>215.6</ele>
        <time>2020-08-14T11:45:38Z</time>
      </trkpt>
      <trkpt lat="48.72198" lon="7.31588">
        <ele>214.3</ele>
        <time>2020-08-14T11:45:40Z</time>
      </trkpt>
      <trkpt lat="48.72202" lon="7.31612">
        <ele>213.2</ele>
        <time>2020-08-14T11:45:42Z</time>
      </trkpt>
      <trkpt lat="48.72205" lon="7.31636">
        <ele>212.6</ele>
        <time>2020-08-14T11:45:44Z</time>
      </trkpt>
      <trkpt lat="48.72206" lon="7.31659">
        <ele>211.8</ele>
        <time>2020-08-14T11:45:46Z</time>
      </trkpt>
      <trkpt lat="48.72207" lon="7.3168">
        <ele>210.9</ele>
        <time>2020-08-14T11:45:48Z</time>
      </trkpt>
      <trkpt lat="48.7221" lon="7.31702">
        <ele>209.7</ele>
        <time>2020-08-14T11:45:50Z</time>
      </trkpt>
      <trkpt lat="48.72212" lon="7.31725">
        <ele>209.4</ele>
        <time>2020-08-14T11:45:52Z</time>
      </trkpt>
      <trkpt lat="48.72214" lon="7.31748">
        <ele>208.8</ele>
        <time>2020-08-14T11:45:54Z</time>
      </trkpt>
      <trkpt lat="48.72215" lon="7.31772">
        <ele>208.4</ele>
        <time>2020-08-14T11:45:56Z</time>
      </trkpt>
      <trkpt lat="48.72216" lon="7.31793">
        <ele>207.7</ele>
        <time>2020-08-14T11:45:58Z</time>
      </trkpt>
      <trkpt lat="48.72217" lon="7.31813">
        <ele>206.9</ele>
        <time>2020-08-14T11:46:01Z</time>
      </trkpt>
      <trkpt lat="48.72219" lon="7.31833">
        <ele>206.9</ele>
        <time>2020-08-14T11:46:03Z</time>
      </trkpt>
      <trkpt lat="48.72222" lon="7.31853">
        <ele>206.9</ele>
        <time>2020-08-14T11:46:05Z</time>
      </trkpt>
      <trkpt lat="48.72228" lon="7.31882">
        <ele>206.7</ele>
        <time>2020-08-14T11:46:08Z</time>
      </trkpt>
      <trkpt lat="48.72234" lon="7.31902">
        <ele>206.5</ele>
        <time>2020-08-14T11:46:10Z</time>
      </trkpt>
      <trkpt lat="48.72241" lon="7.3192">
        <ele>206.8</ele>
        <time>2020-08-14T11:46:12Z</time>
      </trkpt>
      <trkpt lat="48.72249" lon="7.3194">
        <ele>207.3</ele>
        <time>2020-08-14T11:46:14Z</time>
      </trkpt>
      <trkpt lat="48.72258" lon="7.31957">
        <ele>207.5</ele>
        <time>2020-08-14T11:46:16Z</time>
      </trkpt>
      <trkpt lat="48.72269" lon="7.31984">
        <ele>208.8</ele>
        <time>2020-08-14T11:46:19Z</time>
      </trkpt>
      <trkpt lat="48.72279" lon="7.3201">
        <ele>209.9</ele>
        <time>2020-08-14T11:46:22Z</time>
      </trkpt>
      <trkpt lat="48.72286" lon="7.32023">
        <ele>209.9</ele>
        <time>2020-08-14T11:46:24Z</time>
      </trkpt>
      <trkpt lat="48.72292" lon="7.32036">
        <ele>211</ele>
        <time>2020-08-14T11:46:26Z</time>
      </trkpt>
      <trkpt lat="48.72304" lon="7.32052">
        <ele>211.2</ele>
        <time>2020-08-14T11:46:29Z</time>
      </trkpt>
      <trkpt lat="48.72311" lon="7.32067">
        <ele>212.1</ele>
        <time>2020-08-14T11:46:31Z</time>
      </trkpt>
      <trkpt lat="48.7232" lon="7.32079">
        <ele>211.3</ele>
        <time>2020-08-14T11:46:33Z</time>
      </trkpt>
      <trkpt lat="48.72328" lon="7.32092">
        <ele>211.4</ele>
        <time>2020-08-14T11:46:35Z</time>
      </trkpt>
      <trkpt lat="48.72337" lon="7.32104">
        <ele>211.4</ele>
        <time>2020-08-14T11:46:37Z</time>
      </trkpt>
      <trkpt lat="48.72347" lon="7.32117">
        <ele>211.6</ele>
        <time>2020-08-14T11:46:39Z</time>
      </trkpt>
      <trkpt lat="48.72359" lon="7.32139">
        <ele>211.8</ele>
        <time>2020-08-14T11:46:42Z</time>
      </trkpt>
      <trkpt lat="48.72368" lon="7.32155">
        <ele>211.4</ele>
        <time>2020-08-14T11:46:44Z</time>
      </trkpt>
      <trkpt lat="48.72377" lon="7.32171">
        <ele>211.3</ele>
        <time>2020-08-14T11:46:46Z</time>
      </trkpt>
      <trkpt lat="48.72388" lon="7.32189">
        <ele>212.3</ele>
        <time>2020-08-14T11:46:48Z</time>
      </trkpt>
      <trkpt lat="48.72404" lon="7.32212">
        <ele>212.7</ele>
        <time>2020-08-14T11:46:51Z</time>
      </trkpt>
      <trkpt lat="48.72417" lon="7.32231">
        <ele>212.8</ele>
        <time>2020-08-14T11:46:53Z</time>
      </trkpt>
      <trkpt lat="48.72427" lon="7.32248">
        <ele>212.7</ele>
        <time>2020-08-14T11:46:55Z</time>
      </trkpt>
      <trkpt lat="48.72438" lon="7.32266">
        <ele>211.5</ele>
        <time>2020-08-14T11:46:57Z</time>
      </trkpt>
      <trkpt lat="48.72448" lon="7.32282">
        <ele>211.4</ele>
        <time>2020-08-14T11:46:59Z</time>
      </trkpt>
      <trkpt lat="48.72464" lon="7.32305">
        <ele>210.3</ele>
        <time>2020-08-14T11:47:02Z</time>
      </trkpt>
      <trkpt lat="48.72475" lon="7.32319">
        <ele>210.9</ele>
        <time>2020-08-14T11:47:04Z</time>
      </trkpt>
      <trkpt lat="48.72487" lon="7.3233">
        <ele>211.2</ele>
        <time>2020-08-14T11:47:06Z</time>
      </trkpt>
      <trkpt lat="48.72499" lon="7.32342">
        <ele>211.7</ele>
        <time>2020-08-14T11:47:08Z</time>
      </trkpt>
      <trkpt lat="48.72514" lon="7.3236">
        <ele>211.5</ele>
        <time>2020-08-14T11:47:10Z</time>
      </trkpt>
      <trkpt lat="48.72531" lon="7.32386">
        <ele>212.8</ele>
        <time>2020-08-14T11:47:13Z</time>
      </trkpt>
      <trkpt lat="48.72542" lon="7.32402">
        <ele>213.6</ele>
        <time>2020-08-14T11:47:15Z</time>
      </trkpt>
      <trkpt lat="48.72556" lon="7.32418">
        <ele>213.9</ele>
        <time>2020-08-14T11:47:17Z</time>
      </trkpt>
      <trkpt lat="48.7257" lon="7.32432">
        <ele>214.1</ele>
        <time>2020-08-14T11:47:19Z</time>
      </trkpt>
      <trkpt lat="48.72582" lon="7.32446">
        <ele>214.5</ele>
        <time>2020-08-14T11:47:21Z</time>
      </trkpt>
      <trkpt lat="48.72594" lon="7.32461">
        <ele>214.3</ele>
        <time>2020-08-14T11:47:23Z</time>
      </trkpt>
      <trkpt lat="48.72609" lon="7.32487">
        <ele>214.1</ele>
        <time>2020-08-14T11:47:26Z</time>
      </trkpt>
      <trkpt lat="48.72619" lon="7.32505">
        <ele>213.9</ele>
        <time>2020-08-14T11:47:28Z</time>
      </trkpt>
      <trkpt lat="48.72627" lon="7.32521">
        <ele>213.2</ele>
        <time>2020-08-14T11:47:30Z</time>
      </trkpt>
      <trkpt lat="48.72634" lon="7.32539">
        <ele>211.8</ele>
        <time>2020-08-14T11:47:32Z</time>
      </trkpt>
      <trkpt lat="48.72641" lon="7.32559">
        <ele>211.5</ele>
        <time>2020-08-14T11:47:34Z</time>
      </trkpt>
      <trkpt lat="48.72648" lon="7.32579">
        <ele>210.3</ele>
        <time>2020-08-14T11:47:36Z</time>
      </trkpt>
      <trkpt lat="48.72655" lon="7.32597">
        <ele>209.7</ele>
        <time>2020-08-14T11:47:38Z</time>
      </trkpt>
      <trkpt lat="48.72661" lon="7.3262">
        <ele>208.8</ele>
        <time>2020-08-14T11:47:40Z</time>
      </trkpt>
      <trkpt lat="48.72664" lon="7.32642">
        <ele>208.4</ele>
        <time>2020-08-14T11:47:42Z</time>
      </trkpt>
      <trkpt lat="48.72666" lon="7.32667">
        <ele>208.3</ele>
        <time>2020-08-14T11:47:44Z</time>
      </trkpt>
      <trkpt lat="48.72669" lon="7.32691">
        <ele>208.2</ele>
        <time>2020-08-14T11:47:46Z</time>
      </trkpt>
      <trkpt lat="48.72673" lon="7.32715">
        <ele>207.2</ele>
        <time>2020-08-14T11:47:48Z</time>
      </trkpt>
      <trkpt lat="48.72677" lon="7.3274">
        <ele>207.5</ele>
        <time>2020-08-14T11:47:50Z</time>
      </trkpt>
      <trkpt lat="48.72679" lon="7.32767">
        <ele>207.8</ele>
        <time>2020-08-14T11:47:52Z</time>
      </trkpt>
      <trkpt lat="48.72682" lon="7.32791">
        <ele>208</ele>
        <time>2020-08-14T11:47:54Z</time>
      </trkpt>
      <trkpt lat="48.72684" lon="7.32818">
        <ele>208.9</ele>
        <time>2020-08-14T11:47:56Z</time>
      </trkpt>
      <trkpt lat="48.72685" lon="7.32844">
        <ele>209.6</ele>
        <time>2020-08-14T11:47:58Z</time>
      </trkpt>
      <trkpt lat="48.72687" lon="7.32866">
        <ele>211.1</ele>
        <time>2020-08-14T11:48:00Z</time>
      </trkpt>
      <trkpt lat="48.7269" lon="7.32888">
        <ele>212.3</ele>
        <time>2020-08-14T11:48:02Z</time>
      </trkpt>
      <trkpt lat="48.72697" lon="7.32908">
        <ele>213.3</ele>
        <time>2020-08-14T11:48:04Z</time>
      </trkpt>
      <trkpt lat="48.72705" lon="7.32929">
        <ele>213.1</ele>
        <time>2020-08-14T11:48:06Z</time>
      </trkpt>
      <trkpt lat="48.72713" lon="7.32949">
        <ele>212.9</ele>
        <time>2020-08-14T11:48:08Z</time>
      </trkpt>
      <trkpt lat="48.72723" lon="7.32968">
        <ele>214</ele>
        <time>2020-08-14T11:48:10Z</time>
      </trkpt>
      <trkpt lat="48.7273" lon="7.32988">
        <ele>214.7</ele>
        <time>2020-08-14T11:48:12Z</time>
      </trkpt>
      <trkpt lat="48.7274" lon="7.33011">
        <ele>215</ele>
        <time>2020-08-14T11:48:14Z</time>
      </trkpt>
      <trkpt lat="48.72751" lon="7.3303">
        <ele>215.2</ele>
        <time>2020-08-14T11:48:16Z</time>
      </trkpt>
      <trkpt lat="48.72766" lon="7.33054">
        <ele>213.8</ele>
        <time>2020-08-14T11:48:19Z</time>
      </trkpt>
      <trkpt lat="48.72778" lon="7.33065">
        <ele>212.9</ele>
        <time>2020-08-14T11:48:21Z</time>
      </trkpt>
      <trkpt lat="48.72788" lon="7.33075">
        <ele>212.5</ele>
        <time>2020-08-14T11:48:23Z</time>
      </trkpt>
      <trkpt lat="48.72801" lon="7.33084">
        <ele>211.5</ele>
        <time>2020-08-14T11:48:25Z</time>
      </trkpt>
      <trkpt lat="48.72815" lon="7.33092">
        <ele>210.7</ele>
        <time>2020-08-14T11:48:27Z</time>
      </trkpt>
      <trkpt lat="48.7283" lon="7.331">
        <ele>209.8</ele>
        <time>2020-08-14T11:48:29Z</time>
      </trkpt>
      <trkpt lat="48.72843" lon="7.33109">
        <ele>208.1</ele>
        <time>2020-08-14T11:48:31Z</time>
      </trkpt>
      <trkpt lat="48.72856" lon="7.33118">
        <ele>207.5</ele>
        <time>2020-08-14T11:48:33Z</time>
      </trkpt>
      <trkpt lat="48.72871" lon="7.33126">
        <ele>205.9</ele>
        <time>2020-08-14T11:48:35Z</time>
      </trkpt>
      <trkpt lat="48.72885" lon="7.33135">
        <ele>205.3</ele>
        <time>2020-08-14T11:48:37Z</time>
      </trkpt>
      <trkpt lat="48.72899" lon="7.33146">
        <ele>204.9</ele>
        <time>2020-08-14T11:48:39Z</time>
      </trkpt>
      <trkpt lat="48.72911" lon="7.33155">
        <ele>205</ele>
        <time>2020-08-14T11:48:41Z</time>
      </trkpt>
      <trkpt lat="48.72932" lon="7.33164">
        <ele>205.3</ele>
        <time>2020-08-14T11:48:44Z</time>
      </trkpt>
      <trkpt lat="48.72949" lon="7.33171">
        <ele>205.5</ele>
        <time>2020-08-14T11:48:46Z</time>
      </trkpt>
      <trkpt lat="48.72964" lon="7.33181">
        <ele>205</ele>
        <time>2020-08-14T11:48:48Z</time>
      </trkpt>
      <trkpt lat="48.72978" lon="7.3319">
        <ele>206.2</ele>
        <time>2020-08-14T11:48:50Z</time>
      </trkpt>
      <trkpt lat="48.72997" lon="7.33206">
        <ele>206.4</ele>
        <time>2020-08-14T11:48:53Z</time>
      </trkpt>
      <trkpt lat="48.73011" lon="7.33216">
        <ele>207.2</ele>
        <time>2020-08-14T11:48:55Z</time>
      </trkpt>
      <trkpt lat="48.73024" lon="7.33226">
        <ele>208.2</ele>
        <time>2020-08-14T11:48:57Z</time>
      </trkpt>
      <trkpt lat="48.73035" lon="7.33241">
        <ele>208.8</ele>
        <time>2020-08-14T11:48:59Z</time>
      </trkpt>
      <trkpt lat="48.73047" lon="7.33251">
        <ele>209.3</ele>
        <time>2020-08-14T11:49:01Z</time>
      </trkpt>
      <trkpt lat="48.73059" lon="7.33263">
        <ele>210.6</ele>
        <time>2020-08-14T11:49:03Z</time>
      </trkpt>
      <trkpt lat="48.73079" lon="7.33276">
        <ele>211.4</ele>
        <time>2020-08-14T11:49:06Z</time>
      </trkpt>
      <trkpt lat="48.73095" lon="7.33287">
        <ele>212.5</ele>
        <time>2020-08-14T11:49:08Z</time>
      </trkpt>
      <trkpt lat="48.73107" lon="7.33305">
        <ele>212.5</ele>
        <time>2020-08-14T11:49:10Z</time>
      </trkpt>
      <trkpt lat="48.73118" lon="7.33325">
        <ele>212</ele>
        <time>2020-08-14T11:49:12Z</time>
      </trkpt>
      <trkpt lat="48.7313" lon="7.33348">
        <ele>211.9</ele>
        <time>2020-08-14T11:49:14Z</time>
      </trkpt>
      <trkpt lat="48.73142" lon="7.33371">
        <ele>209</ele>
        <time>2020-08-14T11:49:16Z</time>
      </trkpt>
      <trkpt lat="48.73153" lon="7.33395">
        <ele>207.1</ele>
        <time>2020-08-14T11:49:18Z</time>
      </trkpt>
      <trkpt lat="48.73164" lon="7.33421">
        <ele>205.7</ele>
        <time>2020-08-14T11:49:20Z</time>
      </trkpt>
      <trkpt lat="48.73174" lon="7.33447">
        <ele>205.2</ele>
        <time>2020-08-14T11:49:22Z</time>
      </trkpt>
      <trkpt lat="48.73184" lon="7.33472">
        <ele>204</ele>
        <time>2020-08-14T11:49:24Z</time>
      </trkpt>
      <trkpt lat="48.73193" lon="7.33498">
        <ele>203.7</ele>
        <time>2020-08-14T11:49:26Z</time>
      </trkpt>
      <trkpt lat="48.73201" lon="7.33525">
        <ele>203.3</ele>
        <time>2020-08-14T11:49:28Z</time>
      </trkpt>
      <trkpt lat="48.73207" lon="7.33551">
        <ele>202.2</ele>
        <time>2020-08-14T11:49:30Z</time>
      </trkpt>
      <trkpt lat="48.73209" lon="7.33578">
        <ele>200.9</ele>
        <time>2020-08-14T11:49:32Z</time>
      </trkpt>
      <trkpt lat="48.73209" lon="7.33605">
        <ele>199.5</ele>
        <time>2020-08-14T11:49:34Z</time>
      </trkpt>
      <trkpt lat="48.73208" lon="7.33632">
        <ele>198.8</ele>
        <time>2020-08-14T11:49:36Z</time>
      </trkpt>
      <trkpt lat="48.73206" lon="7.33671">
        <ele>197.9</ele>
        <time>2020-08-14T11:49:39Z</time>
      </trkpt>
      <trkpt lat="48.73205" lon="7.33697">
        <ele>197</ele>
        <time>2020-08-14T11:49:41Z</time>
      </trkpt>
      <trkpt lat="48.73202" lon="7.33723">
        <ele>196.5</ele>
        <time>2020-08-14T11:49:43Z</time>
      </trkpt>
      <trkpt lat="48.732" lon="7.33749">
        <ele>195.9</ele>
        <time>2020-08-14T11:49:45Z</time>
      </trkpt>
      <trkpt lat="48.73199" lon="7.33774">
        <ele>195.3</ele>
        <time>2020-08-14T11:49:47Z</time>
      </trkpt>
      <trkpt lat="48.73198" lon="7.33798">
        <ele>194.8</ele>
        <time>2020-08-14T11:49:49Z</time>
      </trkpt>
      <trkpt lat="48.73198" lon="7.33823">
        <ele>195.8</ele>
        <time>2020-08-14T11:49:51Z</time>
      </trkpt>
      <trkpt lat="48.73201" lon="7.33846">
        <ele>195.8</ele>
        <time>2020-08-14T11:49:53Z</time>
      </trkpt>
      <trkpt lat="48.73206" lon="7.33869">
        <ele>195.9</ele>
        <time>2020-08-14T11:49:55Z</time>
      </trkpt>
      <trkpt lat="48.73213" lon="7.3389">
        <ele>195.3</ele>
        <time>2020-08-14T11:49:57Z</time>
      </trkpt>
      <trkpt lat="48.73223" lon="7.33908">
        <ele>195.1</ele>
        <time>2020-08-14T11:49:59Z</time>
      </trkpt>
      <trkpt lat="48.73234" lon="7.33927">
        <ele>194.6</ele>
        <time>2020-08-14T11:50:01Z</time>
      </trkpt>
      <trkpt lat="48.73245" lon="7.33944">
        <ele>194.1</ele>
        <time>2020-08-14T11:50:03Z</time>
      </trkpt>
      <trkpt lat="48.73258" lon="7.33955">
        <ele>194</ele>
        <time>2020-08-14T11:50:05Z</time>
      </trkpt>
      <trkpt lat="48.73271" lon="7.33963">
        <ele>194.1</ele>
        <time>2020-08-14T11:50:07Z</time>
      </trkpt>
      <trkpt lat="48.73284" lon="7.33976">
        <ele>194.3</ele>
        <time>2020-08-14T11:50:09Z</time>
      </trkpt>
      <trkpt lat="48.73299" lon="7.33987">
        <ele>194.4</ele>
        <time>2020-08-14T11:50:11Z</time>
      </trkpt>
      <trkpt lat="48.73314" lon="7.33999">
        <ele>195</ele>
        <time>2020-08-14T11:50:13Z</time>
      </trkpt>
      <trkpt lat="48.73329" lon="7.34012">
        <ele>195.6</ele>
        <time>2020-08-14T11:50:15Z</time>
      </trkpt>
      <trkpt lat="48.73341" lon="7.34028">
        <ele>195.8</ele>
        <time>2020-08-14T11:50:17Z</time>
      </trkpt>
      <trkpt lat="48.73349" lon="7.34047">
        <ele>195.9</ele>
        <time>2020-08-14T11:50:19Z</time>
      </trkpt>
      <trkpt lat="48.7335" lon="7.34067">
        <ele>196.5</ele>
        <time>2020-08-14T11:50:21Z</time>
      </trkpt>
      <trkpt lat="48.73348" lon="7.34086">
        <ele>196.7</ele>
        <time>2020-08-14T11:50:23Z</time>
      </trkpt>
      <trkpt lat="48.73344" lon="7.34102">
        <ele>196.2</ele>
        <time>2020-08-14T11:50:25Z</time>
      </trkpt>
      <trkpt lat="48.73341" lon="7.34114">
        <ele>195.7</ele>
        <time>2020-08-14T11:50:27Z</time>
      </trkpt>
      <trkpt lat="48.73342" lon="7.34123">
        <ele>195.7</ele>
        <time>2020-08-14T11:50:29Z</time>
      </trkpt>
      <trkpt lat="48.73346" lon="7.34131">
        <ele>196</ele>
        <time>2020-08-14T11:50:31Z</time>
      </trkpt>
      <trkpt lat="48.7335" lon="7.34137">
        <ele>195.6</ele>
        <time>2020-08-14T11:50:33Z</time>
      </trkpt>
      <trkpt lat="48.73357" lon="7.34143">
        <ele>195.5</ele>
        <time>2020-08-14T11:50:35Z</time>
      </trkpt>
      <trkpt lat="48.73365" lon="7.34149">
        <ele>195.2</ele>
        <time>2020-08-14T11:50:37Z</time>
      </trkpt>
      <trkpt lat="48.73374" lon="7.34157">
        <ele>195.2</ele>
        <time>2020-08-14T11:50:39Z</time>
      </trkpt>
      <trkpt lat="48.73383" lon="7.34164">
        <ele>195.2</ele>
        <time>2020-08-14T11:50:41Z</time>
      </trkpt>
      <trkpt lat="48.73394" lon="7.34172">
        <ele>195.1</ele>
        <time>2020-08-14T11:50:43Z</time>
      </trkpt>
      <trkpt lat="48.73406" lon="7.3418">
        <ele>195.3</ele>
        <time>2020-08-14T11:50:45Z</time>
      </trkpt>
      <trkpt lat="48.73417" lon="7.3419">
        <ele>195.3</ele>
        <time>2020-08-14T11:50:47Z</time>
      </trkpt>
      <trkpt lat="48.73428" lon="7.34201">
        <ele>195.3</ele>
        <time>2020-08-14T11:50:49Z</time>
      </trkpt>
      <trkpt lat="48.73438" lon="7.34212">
        <ele>195</ele>
        <time>2020-08-14T11:50:51Z</time>
      </trkpt>
      <trkpt lat="48.73448" lon="7.34224">
        <ele>194.5</ele>
        <time>2020-08-14T11:50:53Z</time>
      </trkpt>
      <trkpt lat="48.73458" lon="7.34235">
        <ele>194.2</ele>
        <time>2020-08-14T11:50:55Z</time>
      </trkpt>
      <trkpt lat="48.73468" lon="7.34247">
        <ele>193.8</ele>
        <time>2020-08-14T11:50:57Z</time>
      </trkpt>
      <trkpt lat="48.73478" lon="7.3426">
        <ele>193.6</ele>
        <time>2020-08-14T11:50:59Z</time>
      </trkpt>
      <trkpt lat="48.73487" lon="7.34274">
        <ele>193.3</ele>
        <time>2020-08-14T11:51:01Z</time>
      </trkpt>
      <trkpt lat="48.73497" lon="7.34288">
        <ele>193</ele>
        <time>2020-08-14T11:51:03Z</time>
      </trkpt>
      <trkpt lat="48.73505" lon="7.34302">
        <ele>192.7</ele>
        <time>2020-08-14T11:51:05Z</time>
      </trkpt>
      <trkpt lat="48.73515" lon="7.34316">
        <ele>192.3</ele>
        <time>2020-08-14T11:51:07Z</time>
      </trkpt>
      <trkpt lat="48.73524" lon="7.34329">
        <ele>192.1</ele>
        <time>2020-08-14T11:51:09Z</time>
      </trkpt>
      <trkpt lat="48.73532" lon="7.34344">
        <ele>191.8</ele>
        <time>2020-08-14T11:51:11Z</time>
      </trkpt>
      <trkpt lat="48.73541" lon="7.34358">
        <ele>192.1</ele>
        <time>2020-08-14T11:51:13Z</time>
      </trkpt>
      <trkpt lat="48.7355" lon="7.34373">
        <ele>192.1</ele>
        <time>2020-08-14T11:51:15Z</time>
      </trkpt>
      <trkpt lat="48.73559" lon="7.34388">
        <ele>192.1</ele>
        <time>2020-08-14T11:51:17Z</time>
      </trkpt>
      <trkpt lat="48.73567" lon="7.34403">
        <ele>192</ele>
        <time>2020-08-14T11:51:19Z</time>
      </trkpt>
      <trkpt lat="48.73576" lon="7.34418">
        <ele>191.9</ele>
        <time>2020-08-14T11:51:21Z</time>
      </trkpt>
      <trkpt lat="48.73589" lon="7.34441">
        <ele>192.1</ele>
        <time>2020-08-14T11:51:24Z</time>
      </trkpt>
      <trkpt lat="48.73598" lon="7.34456">
        <ele>192.1</ele>
        <time>2020-08-14T11:51:26Z</time>
      </trkpt>
      <trkpt lat="48.73606" lon="7.3447">
        <ele>192.2</ele>
        <time>2020-08-14T11:51:28Z</time>
      </trkpt>
      <trkpt lat="48.73619" lon="7.34494">
        <ele>192</ele>
        <time>2020-08-14T11:51:31Z</time>
      </trkpt>
      <trkpt lat="48.73628" lon="7.34509">
        <ele>191.6</ele>
        <time>2020-08-14T11:51:33Z</time>
      </trkpt>
      <trkpt lat="48.73636" lon="7.34523">
        <ele>190.9</ele>
        <time>2020-08-14T11:51:35Z</time>
      </trkpt>
      <trkpt lat="48.73644" lon="7.34534">
        <ele>190.5</ele>
        <time>2020-08-14T11:51:37Z</time>
      </trkpt>
      <trkpt lat="48.7365" lon="7.34543">
        <ele>190.2</ele>
        <time>2020-08-14T11:51:40Z</time>
      </trkpt>
      <trkpt lat="48.73654" lon="7.34547">
        <ele>193.7</ele>
        <time>2020-08-14T11:52:04Z</time>
      </trkpt>
      <trkpt lat="48.73658" lon="7.34552">
        <ele>194.3</ele>
        <time>2020-08-14T11:52:19Z</time>
      </trkpt>
      <trkpt lat="48.73665" lon="7.34559">
        <ele>194.5</ele>
        <time>2020-08-14T11:52:22Z</time>
      </trkpt>
      <trkpt lat="48.73673" lon="7.34571">
        <ele>194.5</ele>
        <time>2020-08-14T11:52:25Z</time>
      </trkpt>
      <trkpt lat="48.7368" lon="7.3458">
        <ele>194.5</ele>
        <time>2020-08-14T11:52:27Z</time>
      </trkpt>
      <trkpt lat="48.73692" lon="7.34596">
        <ele>194</ele>
        <time>2020-08-14T11:52:30Z</time>
      </trkpt>
      <trkpt lat="48.737" lon="7.34607">
        <ele>194.1</ele>
        <time>2020-08-14T11:52:32Z</time>
      </trkpt>
      <trkpt lat="48.73709" lon="7.34621">
        <ele>194.1</ele>
        <time>2020-08-14T11:52:34Z</time>
      </trkpt>
      <trkpt lat="48.73719" lon="7.34633">
        <ele>194.3</ele>
        <time>2020-08-14T11:52:36Z</time>
      </trkpt>
      <trkpt lat="48.73733" lon="7.34651">
        <ele>194.5</ele>
        <time>2020-08-14T11:52:39Z</time>
      </trkpt>
      <trkpt lat="48.73744" lon="7.34662">
        <ele>194.4</ele>
        <time>2020-08-14T11:52:41Z</time>
      </trkpt>
      <trkpt lat="48.73763" lon="7.34676">
        <ele>193.6</ele>
        <time>2020-08-14T11:52:44Z</time>
      </trkpt>
      <trkpt lat="48.73775" lon="7.34684">
        <ele>193.1</ele>
        <time>2020-08-14T11:52:46Z</time>
      </trkpt>
      <trkpt lat="48.73788" lon="7.34692">
        <ele>192.1</ele>
        <time>2020-08-14T11:52:48Z</time>
      </trkpt>
      <trkpt lat="48.73799" lon="7.34699">
        <ele>191.7</ele>
        <time>2020-08-14T11:52:50Z</time>
      </trkpt>
      <trkpt lat="48.73811" lon="7.34708">
        <ele>191.5</ele>
        <time>2020-08-14T11:52:52Z</time>
      </trkpt>
      <trkpt lat="48.73822" lon="7.34716">
        <ele>191.3</ele>
        <time>2020-08-14T11:52:54Z</time>
      </trkpt>
      <trkpt lat="48.73834" lon="7.34726">
        <ele>191.3</ele>
        <time>2020-08-14T11:52:56Z</time>
      </trkpt>
      <trkpt lat="48.73845" lon="7.34736">
        <ele>191.3</ele>
        <time>2020-08-14T11:52:58Z</time>
      </trkpt>
      <trkpt lat="48.73855" lon="7.34748">
        <ele>191.5</ele>
        <time>2020-08-14T11:53:00Z</time>
      </trkpt>
      <trkpt lat="48.73865" lon="7.34759">
        <ele>191.2</ele>
        <time>2020-08-14T11:53:02Z</time>
      </trkpt>
      <trkpt lat="48.73875" lon="7.3477">
        <ele>191.4</ele>
        <time>2020-08-14T11:53:04Z</time>
      </trkpt>
      <trkpt lat="48.73886" lon="7.34781">
        <ele>191.7</ele>
        <time>2020-08-14T11:53:06Z</time>
      </trkpt>
      <trkpt lat="48.73902" lon="7.34797">
        <ele>192.6</ele>
        <time>2020-08-14T11:53:09Z</time>
      </trkpt>
      <trkpt lat="48.73913" lon="7.34806">
        <ele>192.2</ele>
        <time>2020-08-14T11:53:11Z</time>
      </trkpt>
      <trkpt lat="48.7393" lon="7.3482">
        <ele>191.7</ele>
        <time>2020-08-14T11:53:14Z</time>
      </trkpt>
      <trkpt lat="48.73941" lon="7.3483">
        <ele>191.4</ele>
        <time>2020-08-14T11:53:16Z</time>
      </trkpt>
      <trkpt lat="48.73952" lon="7.34839">
        <ele>191.3</ele>
        <time>2020-08-14T11:53:18Z</time>
      </trkpt>
      <trkpt lat="48.73968" lon="7.34855">
        <ele>191</ele>
        <time>2020-08-14T11:53:21Z</time>
      </trkpt>
      <trkpt lat="48.73978" lon="7.34866">
        <ele>191</ele>
        <time>2020-08-14T11:53:23Z</time>
      </trkpt>
      <trkpt lat="48.73994" lon="7.34883">
        <ele>190.8</ele>
        <time>2020-08-14T11:53:26Z</time>
      </trkpt>
      <trkpt lat="48.74005" lon="7.34895">
        <ele>190.5</ele>
        <time>2020-08-14T11:53:28Z</time>
      </trkpt>
      <trkpt lat="48.74015" lon="7.34905">
        <ele>190.5</ele>
        <time>2020-08-14T11:53:30Z</time>
      </trkpt>
      <trkpt lat="48.74026" lon="7.34916">
        <ele>190.3</ele>
        <time>2020-08-14T11:53:32Z</time>
      </trkpt>
      <trkpt lat="48.74036" lon="7.34929">
        <ele>190.3</ele>
        <time>2020-08-14T11:53:34Z</time>
      </trkpt>
      <trkpt lat="48.74046" lon="7.34941">
        <ele>189.5</ele>
        <time>2020-08-14T11:53:36Z</time>
      </trkpt>
      <trkpt lat="48.74058" lon="7.34963">
        <ele>189.5</ele>
        <time>2020-08-14T11:53:39Z</time>
      </trkpt>
      <trkpt lat="48.74066" lon="7.34979">
        <ele>189.6</ele>
        <time>2020-08-14T11:53:41Z</time>
      </trkpt>
      <trkpt lat="48.74072" lon="7.34996">
        <ele>189.9</ele>
        <time>2020-08-14T11:53:43Z</time>
      </trkpt>
      <trkpt lat="48.74079" lon="7.35013">
        <ele>189.9</ele>
        <time>2020-08-14T11:53:45Z</time>
      </trkpt>
      <trkpt lat="48.74085" lon="7.3503">
        <ele>190</ele>
        <time>2020-08-14T11:53:47Z</time>
      </trkpt>
      <trkpt lat="48.74091" lon="7.35048">
        <ele>189.9</ele>
        <time>2020-08-14T11:53:49Z</time>
      </trkpt>
      <trkpt lat="48.74096" lon="7.35067">
        <ele>190</ele>
        <time>2020-08-14T11:53:51Z</time>
      </trkpt>
      <trkpt lat="48.74101" lon="7.35085">
        <ele>190.1</ele>
        <time>2020-08-14T11:53:53Z</time>
      </trkpt>
      <trkpt lat="48.74104" lon="7.35104">
        <ele>190</ele>
        <time>2020-08-14T11:53:55Z</time>
      </trkpt>
      <trkpt lat="48.74108" lon="7.35123">
        <ele>190.3</ele>
        <time>2020-08-14T11:53:57Z</time>
      </trkpt>
      <trkpt lat="48.74111" lon="7.35143">
        <ele>191.1</ele>
        <time>2020-08-14T11:53:59Z</time>
      </trkpt>
      <trkpt lat="48.74113" lon="7.35163">
        <ele>191.4</ele>
        <time>2020-08-14T11:54:01Z</time>
      </trkpt>
      <trkpt lat="48.74114" lon="7.35184">
        <ele>191.7</ele>
        <time>2020-08-14T11:54:03Z</time>
      </trkpt>
      <trkpt lat="48.74116" lon="7.35207">
        <ele>192.1</ele>
        <time>2020-08-14T11:54:05Z</time>
      </trkpt>
      <trkpt lat="48.74117" lon="7.3523">
        <ele>192.6</ele>
        <time>2020-08-14T11:54:07Z</time>
      </trkpt>
      <trkpt lat="48.74118" lon="7.35253">
        <ele>193</ele>
        <time>2020-08-14T11:54:09Z</time>
      </trkpt>
      <trkpt lat="48.74118" lon="7.35277">
        <ele>192.8</ele>
        <time>2020-08-14T11:54:11Z</time>
      </trkpt>
      <trkpt lat="48.74117" lon="7.35302">
        <ele>192.8</ele>
        <time>2020-08-14T11:54:13Z</time>
      </trkpt>
      <trkpt lat="48.74117" lon="7.35326">
        <ele>193</ele>
        <time>2020-08-14T11:54:15Z</time>
      </trkpt>
      <trkpt lat="48.74116" lon="7.3535">
        <ele>193</ele>
        <time>2020-08-14T11:54:17Z</time>
      </trkpt>
      <trkpt lat="48.74116" lon="7.35374">
        <ele>193.4</ele>
        <time>2020-08-14T11:54:19Z</time>
      </trkpt>
      <trkpt lat="48.74115" lon="7.35409">
        <ele>193.6</ele>
        <time>2020-08-14T11:54:22Z</time>
      </trkpt>
      <trkpt lat="48.74114" lon="7.35432">
        <ele>193.4</ele>
        <time>2020-08-14T11:54:24Z</time>
      </trkpt>
      <trkpt lat="48.74113" lon="7.35464">
        <ele>193.3</ele>
        <time>2020-08-14T11:54:27Z</time>
      </trkpt>
      <trkpt lat="48.74112" lon="7.35485">
        <ele>193.1</ele>
        <time>2020-08-14T11:54:29Z</time>
      </trkpt>
      <trkpt lat="48.74112" lon="7.35505">
        <ele>194</ele>
        <time>2020-08-14T11:54:31Z</time>
      </trkpt>
      <trkpt lat="48.74111" lon="7.35524">
        <ele>194.7</ele>
        <time>2020-08-14T11:54:33Z</time>
      </trkpt>
      <trkpt lat="48.74111" lon="7.35542">
        <ele>194.6</ele>
        <time>2020-08-14T11:54:35Z</time>
      </trkpt>
      <trkpt lat="48.74112" lon="7.35562">
        <ele>194.8</ele>
        <time>2020-08-14T11:54:37Z</time>
      </trkpt>
      <trkpt lat="48.74111" lon="7.35593">
        <ele>194.5</ele>
        <time>2020-08-14T11:54:40Z</time>
      </trkpt>
      <trkpt lat="48.74109" lon="7.35616">
        <ele>194.5</ele>
        <time>2020-08-14T11:54:42Z</time>
      </trkpt>
      <trkpt lat="48.74107" lon="7.35651">
        <ele>195</ele>
        <time>2020-08-14T11:54:45Z</time>
      </trkpt>
      <trkpt lat="48.74107" lon="7.35675">
        <ele>196</ele>
        <time>2020-08-14T11:54:47Z</time>
      </trkpt>
      <trkpt lat="48.74106" lon="7.35699">
        <ele>196.5</ele>
        <time>2020-08-14T11:54:49Z</time>
      </trkpt>
      <trkpt lat="48.74105" lon="7.35723">
        <ele>197.1</ele>
        <time>2020-08-14T11:54:51Z</time>
      </trkpt>
      <trkpt lat="48.74104" lon="7.35748">
        <ele>197.2</ele>
        <time>2020-08-14T11:54:53Z</time>
      </trkpt>
      <trkpt lat="48.74104" lon="7.35773">
        <ele>197.5</ele>
        <time>2020-08-14T11:54:55Z</time>
      </trkpt>
      <trkpt lat="48.74103" lon="7.35798">
        <ele>197.5</ele>
        <time>2020-08-14T11:54:57Z</time>
      </trkpt>
      <trkpt lat="48.74102" lon="7.35822">
        <ele>197.8</ele>
        <time>2020-08-14T11:54:59Z</time>
      </trkpt>
      <trkpt lat="48.74103" lon="7.35847">
        <ele>198.2</ele>
        <time>2020-08-14T11:55:01Z</time>
      </trkpt>
      <trkpt lat="48.74105" lon="7.35873">
        <ele>198.9</ele>
        <time>2020-08-14T11:55:03Z</time>
      </trkpt>
      <trkpt lat="48.74108" lon="7.35897">
        <ele>199.6</ele>
        <time>2020-08-14T11:55:05Z</time>
      </trkpt>
      <trkpt lat="48.74112" lon="7.3592">
        <ele>200.3</ele>
        <time>2020-08-14T11:55:07Z</time>
      </trkpt>
      <trkpt lat="48.74118" lon="7.35942">
        <ele>200.7</ele>
        <time>2020-08-14T11:55:09Z</time>
      </trkpt>
      <trkpt lat="48.74127" lon="7.35956">
        <ele>201</ele>
        <time>2020-08-14T11:55:11Z</time>
      </trkpt>
      <trkpt lat="48.74136" lon="7.35972">
        <ele>200.7</ele>
        <time>2020-08-14T11:55:13Z</time>
      </trkpt>
      <trkpt lat="48.74144" lon="7.35987">
        <ele>199.8</ele>
        <time>2020-08-14T11:55:15Z</time>
      </trkpt>
      <trkpt lat="48.74151" lon="7.36001">
        <ele>198.7</ele>
        <time>2020-08-14T11:55:17Z</time>
      </trkpt>
      <trkpt lat="48.74158" lon="7.36015">
        <ele>198.2</ele>
        <time>2020-08-14T11:55:19Z</time>
      </trkpt>
      <trkpt lat="48.74166" lon="7.36029">
        <ele>197.8</ele>
        <time>2020-08-14T11:55:21Z</time>
      </trkpt>
      <trkpt lat="48.74173" lon="7.36042">
        <ele>197.3</ele>
        <time>2020-08-14T11:55:23Z</time>
      </trkpt>
      <trkpt lat="48.74181" lon="7.36054">
        <ele>196.9</ele>
        <time>2020-08-14T11:55:25Z</time>
      </trkpt>
      <trkpt lat="48.74188" lon="7.36067">
        <ele>197</ele>
        <time>2020-08-14T11:55:27Z</time>
      </trkpt>
      <trkpt lat="48.74195" lon="7.3608">
        <ele>197</ele>
        <time>2020-08-14T11:55:29Z</time>
      </trkpt>
      <trkpt lat="48.74202" lon="7.36092">
        <ele>196.9</ele>
        <time>2020-08-14T11:55:31Z</time>
      </trkpt>
      <trkpt lat="48.74209" lon="7.36102">
        <ele>196.8</ele>
        <time>2020-08-14T11:55:33Z</time>
      </trkpt>
      <trkpt lat="48.7421" lon="7.36114">
        <ele>196.6</ele>
        <time>2020-08-14T11:55:35Z</time>
      </trkpt>
      <trkpt lat="48.74207" lon="7.36125">
        <ele>195.4</ele>
        <time>2020-08-14T11:55:37Z</time>
      </trkpt>
      <trkpt lat="48.74201" lon="7.36136">
        <ele>194.9</ele>
        <time>2020-08-14T11:55:39Z</time>
      </trkpt>
      <trkpt lat="48.74196" lon="7.36145">
        <ele>193.7</ele>
        <time>2020-08-14T11:55:41Z</time>
      </trkpt>
      <trkpt lat="48.74192" lon="7.36158">
        <ele>193.4</ele>
        <time>2020-08-14T11:55:43Z</time>
      </trkpt>
      <trkpt lat="48.74191" lon="7.3617">
        <ele>193.3</ele>
        <time>2020-08-14T11:55:45Z</time>
      </trkpt>
      <trkpt lat="48.74194" lon="7.36182">
        <ele>193.6</ele>
        <time>2020-08-14T11:55:47Z</time>
      </trkpt>
      <trkpt lat="48.74199" lon="7.36194">
        <ele>194.3</ele>
        <time>2020-08-14T11:55:49Z</time>
      </trkpt>
      <trkpt lat="48.74207" lon="7.36206">
        <ele>194.7</ele>
        <time>2020-08-14T11:55:51Z</time>
      </trkpt>
      <trkpt lat="48.74213" lon="7.36219">
        <ele>194.5</ele>
        <time>2020-08-14T11:55:53Z</time>
      </trkpt>
      <trkpt lat="48.74221" lon="7.36233">
        <ele>194.4</ele>
        <time>2020-08-14T11:55:55Z</time>
      </trkpt>
      <trkpt lat="48.74224" lon="7.36247">
        <ele>194.3</ele>
        <time>2020-08-14T11:55:57Z</time>
      </trkpt>
      <trkpt lat="48.7422" lon="7.3626">
        <ele>194.1</ele>
        <time>2020-08-14T11:55:59Z</time>
      </trkpt>
      <trkpt lat="48.74214" lon="7.3627">
        <ele>194.1</ele>
        <time>2020-08-14T11:56:01Z</time>
      </trkpt>
      <trkpt lat="48.74206" lon="7.36279">
        <ele>194.2</ele>
        <time>2020-08-14T11:56:03Z</time>
      </trkpt>
    </trkseg>
  </trk>
</gpx>